<?xml version="1.0" encoding="UTF-8" standalone="no" ?>
<gpx xmlns="http://www.topografix.com/GPX/1/1" xmlns:xsi="http://www.w3.org/2001/XMLSchema-instance" xsi:schemaLocation="http://www.topografix.com/GPX/1/1 http://www.topografix.com/GPX/1/1/gpx.xsd" version="1.1" creator="VisuGPX - https://www.visugpx.com">
  <metadata>
    <name>Circuit de 14 Km à Belmont (Isère)</name>
    <desc><![CDATA[Footing de 14 Km avec 270m de dénivellé environ.]]></desc>
  </metadata>
  <trk>
    <name><![CDATA[Circuit de 14 Km à Belmont (Isère)_1]]></name>
    <trkseg>
      <trkpt lat="45.47365" lon="5.36282">
        <ele>564.8</ele>
        <time>2011-12-11T09:02:42Z</time>
      </trkpt>
      <trkpt lat="45.47365" lon="5.36282">
        <ele>564.8</ele>
        <time>2011-12-11T09:02:53Z</time>
      </trkpt>
      <trkpt lat="45.47365" lon="5.36282">
        <ele>564.8</ele>
        <time>2011-12-11T09:03:13Z</time>
      </trkpt>
      <trkpt lat="45.47365" lon="5.36282">
        <ele>614.9</ele>
        <time>2011-12-11T09:03:16Z</time>
      </trkpt>
      <trkpt lat="45.47365" lon="5.36282">
        <ele>564.8</ele>
        <time>2011-12-11T09:03:28Z</time>
      </trkpt>
      <trkpt lat="45.47365" lon="5.36282">
        <ele>564.8</ele>
        <time>2011-12-11T09:03:31Z</time>
      </trkpt>
      <trkpt lat="45.47365" lon="5.36282">
        <ele>564.8</ele>
        <time>2011-12-11T09:03:43Z</time>
      </trkpt>
      <trkpt lat="45.47365" lon="5.36282">
        <ele>564.8</ele>
        <time>2011-12-11T09:03:49Z</time>
      </trkpt>
      <trkpt lat="45.4738" lon="5.36308">
        <ele>608.7</ele>
        <time>2011-12-11T09:03:52Z</time>
      </trkpt>
      <trkpt lat="45.4738" lon="5.36308">
        <ele>562.7</ele>
        <time>2011-12-11T09:04:04Z</time>
      </trkpt>
      <trkpt lat="45.4738" lon="5.36308">
        <ele>562.7</ele>
        <time>2011-12-11T09:04:40Z</time>
      </trkpt>
      <trkpt lat="45.4738" lon="5.36308">
        <ele>562.7</ele>
        <time>2011-12-11T09:04:52Z</time>
      </trkpt>
      <trkpt lat="45.4738" lon="5.36308">
        <ele>562.7</ele>
        <time>2011-12-11T09:05:01Z</time>
      </trkpt>
      <trkpt lat="45.47437" lon="5.36334">
        <ele>605.3</ele>
        <time>2011-12-11T09:05:04Z</time>
      </trkpt>
      <trkpt lat="45.47452" lon="5.36334">
        <ele>606.5</ele>
        <time>2011-12-11T09:05:08Z</time>
      </trkpt>
      <trkpt lat="45.47462" lon="5.36334">
        <ele>607.3</ele>
        <time>2011-12-11T09:05:12Z</time>
      </trkpt>
      <trkpt lat="45.47481" lon="5.36334">
        <ele>607.8</ele>
        <time>2011-12-11T09:05:16Z</time>
      </trkpt>
      <trkpt lat="45.47493" lon="5.36337">
        <ele>607.4</ele>
        <time>2011-12-11T09:05:19Z</time>
      </trkpt>
      <trkpt lat="45.47502" lon="5.36333">
        <ele>611.2</ele>
        <time>2011-12-11T09:05:24Z</time>
      </trkpt>
      <trkpt lat="45.47507" lon="5.36326">
        <ele>612.8</ele>
        <time>2011-12-11T09:05:27Z</time>
      </trkpt>
      <trkpt lat="45.47522" lon="5.36326">
        <ele>614.2</ele>
        <time>2011-12-11T09:05:31Z</time>
      </trkpt>
      <trkpt lat="45.47529" lon="5.36323">
        <ele>614.9</ele>
        <time>2011-12-11T09:05:33Z</time>
      </trkpt>
      <trkpt lat="45.47542" lon="5.36314">
        <ele>615.1</ele>
        <time>2011-12-11T09:05:38Z</time>
      </trkpt>
      <trkpt lat="45.47556" lon="5.36291">
        <ele>613.3</ele>
        <time>2011-12-11T09:05:47Z</time>
      </trkpt>
      <trkpt lat="45.47555" lon="5.3627">
        <ele>614.4</ele>
        <time>2011-12-11T09:05:55Z</time>
      </trkpt>
      <trkpt lat="45.47571" lon="5.36263">
        <ele>616.1</ele>
        <time>2011-12-11T09:06:00Z</time>
      </trkpt>
      <trkpt lat="45.47579" lon="5.36257">
        <ele>616.7</ele>
        <time>2011-12-11T09:06:03Z</time>
      </trkpt>
      <trkpt lat="45.47582" lon="5.36246">
        <ele>617.4</ele>
        <time>2011-12-11T09:06:07Z</time>
      </trkpt>
      <trkpt lat="45.47587" lon="5.36239">
        <ele>617.3</ele>
        <time>2011-12-11T09:06:09Z</time>
      </trkpt>
      <trkpt lat="45.47585" lon="5.36226">
        <ele>616.8</ele>
        <time>2011-12-11T09:06:13Z</time>
      </trkpt>
      <trkpt lat="45.47595" lon="5.36208">
        <ele>620</ele>
        <time>2011-12-11T09:06:21Z</time>
      </trkpt>
      <trkpt lat="45.47605" lon="5.36193">
        <ele>623.3</ele>
        <time>2011-12-11T09:06:27Z</time>
      </trkpt>
      <trkpt lat="45.47611" lon="5.36174">
        <ele>623</ele>
        <time>2011-12-11T09:06:33Z</time>
      </trkpt>
      <trkpt lat="45.47615" lon="5.36154">
        <ele>624.7</ele>
        <time>2011-12-11T09:06:40Z</time>
      </trkpt>
      <trkpt lat="45.47625" lon="5.36145">
        <ele>625.2</ele>
        <time>2011-12-11T09:06:44Z</time>
      </trkpt>
      <trkpt lat="45.47629" lon="5.36137">
        <ele>624.9</ele>
        <time>2011-12-11T09:06:47Z</time>
      </trkpt>
      <trkpt lat="45.47633" lon="5.3613">
        <ele>628</ele>
        <time>2011-12-11T09:06:51Z</time>
      </trkpt>
      <trkpt lat="45.47636" lon="5.36121">
        <ele>628.4</ele>
        <time>2011-12-11T09:06:54Z</time>
      </trkpt>
      <trkpt lat="45.47636" lon="5.36102">
        <ele>631</ele>
        <time>2011-12-11T09:07:00Z</time>
      </trkpt>
      <trkpt lat="45.47641" lon="5.36093">
        <ele>631.5</ele>
        <time>2011-12-11T09:07:04Z</time>
      </trkpt>
      <trkpt lat="45.47644" lon="5.36085">
        <ele>631.2</ele>
        <time>2011-12-11T09:07:08Z</time>
      </trkpt>
      <trkpt lat="45.47648" lon="5.36074">
        <ele>631.1</ele>
        <time>2011-12-11T09:07:12Z</time>
      </trkpt>
      <trkpt lat="45.47648" lon="5.36065">
        <ele>631.2</ele>
        <time>2011-12-11T09:07:15Z</time>
      </trkpt>
      <trkpt lat="45.47649" lon="5.36055">
        <ele>632.8</ele>
        <time>2011-12-11T09:07:18Z</time>
      </trkpt>
      <trkpt lat="45.47653" lon="5.36035">
        <ele>634.1</ele>
        <time>2011-12-11T09:07:26Z</time>
      </trkpt>
      <trkpt lat="45.47653" lon="5.36015">
        <ele>633.4</ele>
        <time>2011-12-11T09:07:32Z</time>
      </trkpt>
      <trkpt lat="45.47656" lon="5.36007">
        <ele>633</ele>
        <time>2011-12-11T09:07:35Z</time>
      </trkpt>
      <trkpt lat="45.47654" lon="5.35997">
        <ele>633.1</ele>
        <time>2011-12-11T09:07:37Z</time>
      </trkpt>
      <trkpt lat="45.47654" lon="5.35975">
        <ele>632.7</ele>
        <time>2011-12-11T09:07:43Z</time>
      </trkpt>
      <trkpt lat="45.47648" lon="5.35945">
        <ele>632</ele>
        <time>2011-12-11T09:07:52Z</time>
      </trkpt>
      <trkpt lat="45.47646" lon="5.35933">
        <ele>631</ele>
        <time>2011-12-11T09:07:55Z</time>
      </trkpt>
      <trkpt lat="45.47645" lon="5.35921">
        <ele>629.6</ele>
        <time>2011-12-11T09:07:58Z</time>
      </trkpt>
      <trkpt lat="45.47647" lon="5.35911">
        <ele>628.3</ele>
        <time>2011-12-11T09:08:04Z</time>
      </trkpt>
      <trkpt lat="45.47645" lon="5.35883">
        <ele>629.1</ele>
        <time>2011-12-11T09:08:11Z</time>
      </trkpt>
      <trkpt lat="45.47638" lon="5.35861">
        <ele>629.2</ele>
        <time>2011-12-11T09:08:16Z</time>
      </trkpt>
      <trkpt lat="45.47636" lon="5.35853">
        <ele>629.6</ele>
        <time>2011-12-11T09:08:18Z</time>
      </trkpt>
      <trkpt lat="45.47635" lon="5.35843">
        <ele>630.4</ele>
        <time>2011-12-11T09:08:21Z</time>
      </trkpt>
      <trkpt lat="45.47642" lon="5.35824">
        <ele>631.5</ele>
        <time>2011-12-11T09:08:28Z</time>
      </trkpt>
      <trkpt lat="45.47654" lon="5.35808">
        <ele>629.7</ele>
        <time>2011-12-11T09:08:34Z</time>
      </trkpt>
      <trkpt lat="45.47664" lon="5.35791">
        <ele>626.8</ele>
        <time>2011-12-11T09:08:40Z</time>
      </trkpt>
      <trkpt lat="45.47666" lon="5.3578">
        <ele>626</ele>
        <time>2011-12-11T09:08:43Z</time>
      </trkpt>
      <trkpt lat="45.47668" lon="5.3577">
        <ele>625.8</ele>
        <time>2011-12-11T09:08:46Z</time>
      </trkpt>
      <trkpt lat="45.47672" lon="5.3576">
        <ele>627.4</ele>
        <time>2011-12-11T09:08:49Z</time>
      </trkpt>
      <trkpt lat="45.47673" lon="5.35735">
        <ele>628.7</ele>
        <time>2011-12-11T09:08:56Z</time>
      </trkpt>
      <trkpt lat="45.47678" lon="5.35727">
        <ele>628.5</ele>
        <time>2011-12-11T09:08:59Z</time>
      </trkpt>
      <trkpt lat="45.47684" lon="5.35719">
        <ele>626.9</ele>
        <time>2011-12-11T09:09:02Z</time>
      </trkpt>
      <trkpt lat="45.47686" lon="5.3571">
        <ele>627.2</ele>
        <time>2011-12-11T09:09:05Z</time>
      </trkpt>
      <trkpt lat="45.47689" lon="5.3569">
        <ele>626.7</ele>
        <time>2011-12-11T09:09:12Z</time>
      </trkpt>
      <trkpt lat="45.4769" lon="5.35671">
        <ele>627.7</ele>
        <time>2011-12-11T09:09:20Z</time>
      </trkpt>
      <trkpt lat="45.47688" lon="5.35662">
        <ele>633.4</ele>
        <time>2011-12-11T09:09:23Z</time>
      </trkpt>
      <trkpt lat="45.47688" lon="5.35651">
        <ele>633.2</ele>
        <time>2011-12-11T09:09:27Z</time>
      </trkpt>
      <trkpt lat="45.47691" lon="5.3564">
        <ele>633.8</ele>
        <time>2011-12-11T09:09:31Z</time>
      </trkpt>
      <trkpt lat="45.47697" lon="5.35623">
        <ele>635</ele>
        <time>2011-12-11T09:09:40Z</time>
      </trkpt>
      <trkpt lat="45.47702" lon="5.35615">
        <ele>633.8</ele>
        <time>2011-12-11T09:09:44Z</time>
      </trkpt>
      <trkpt lat="45.47707" lon="5.356">
        <ele>633.4</ele>
        <time>2011-12-11T09:09:51Z</time>
      </trkpt>
      <trkpt lat="45.4771" lon="5.35591">
        <ele>630.7</ele>
        <time>2011-12-11T09:09:55Z</time>
      </trkpt>
      <trkpt lat="45.47713" lon="5.35582">
        <ele>628.5</ele>
        <time>2011-12-11T09:09:59Z</time>
      </trkpt>
      <trkpt lat="45.47712" lon="5.35572">
        <ele>627.7</ele>
        <time>2011-12-11T09:10:02Z</time>
      </trkpt>
      <trkpt lat="45.47716" lon="5.35562">
        <ele>627.9</ele>
        <time>2011-12-11T09:10:07Z</time>
      </trkpt>
      <trkpt lat="45.47715" lon="5.35544">
        <ele>627.9</ele>
        <time>2011-12-11T09:10:11Z</time>
      </trkpt>
      <trkpt lat="45.47717" lon="5.35523">
        <ele>627.4</ele>
        <time>2011-12-11T09:10:16Z</time>
      </trkpt>
      <trkpt lat="45.47719" lon="5.35514">
        <ele>626.8</ele>
        <time>2011-12-11T09:10:19Z</time>
      </trkpt>
      <trkpt lat="45.47725" lon="5.3551">
        <ele>627</ele>
        <time>2011-12-11T09:10:21Z</time>
      </trkpt>
      <trkpt lat="45.47738" lon="5.35502">
        <ele>626.8</ele>
        <time>2011-12-11T09:10:27Z</time>
      </trkpt>
      <trkpt lat="45.47746" lon="5.35486">
        <ele>627.8</ele>
        <time>2011-12-11T09:10:33Z</time>
      </trkpt>
      <trkpt lat="45.47756" lon="5.35469">
        <ele>629.3</ele>
        <time>2011-12-11T09:10:39Z</time>
      </trkpt>
      <trkpt lat="45.47761" lon="5.35462">
        <ele>630.5</ele>
        <time>2011-12-11T09:10:41Z</time>
      </trkpt>
      <trkpt lat="45.47765" lon="5.35452">
        <ele>628.9</ele>
        <time>2011-12-11T09:10:46Z</time>
      </trkpt>
      <trkpt lat="45.47768" lon="5.35433">
        <ele>634.4</ele>
        <time>2011-12-11T09:10:52Z</time>
      </trkpt>
      <trkpt lat="45.4777" lon="5.35424">
        <ele>633.6</ele>
        <time>2011-12-11T09:10:55Z</time>
      </trkpt>
      <trkpt lat="45.47776" lon="5.35421">
        <ele>633.8</ele>
        <time>2011-12-11T09:10:58Z</time>
      </trkpt>
      <trkpt lat="45.47782" lon="5.35401">
        <ele>635.3</ele>
        <time>2011-12-11T09:11:06Z</time>
      </trkpt>
      <trkpt lat="45.4778" lon="5.3539">
        <ele>641.2</ele>
        <time>2011-12-11T09:11:09Z</time>
      </trkpt>
      <trkpt lat="45.47779" lon="5.35379">
        <ele>643</ele>
        <time>2011-12-11T09:11:13Z</time>
      </trkpt>
      <trkpt lat="45.4779" lon="5.35366">
        <ele>645.8</ele>
        <time>2011-12-11T09:11:20Z</time>
      </trkpt>
      <trkpt lat="45.4779" lon="5.35366">
        <ele>600</ele>
        <time>2011-12-11T09:11:32Z</time>
      </trkpt>
      <trkpt lat="45.4779" lon="5.35366">
        <ele>600</ele>
        <time>2011-12-11T09:11:32Z</time>
      </trkpt>
      <trkpt lat="45.47818" lon="5.35358">
        <ele>647</ele>
        <time>2011-12-11T09:11:39Z</time>
      </trkpt>
      <trkpt lat="45.47834" lon="5.35355">
        <ele>649</ele>
        <time>2011-12-11T09:11:45Z</time>
      </trkpt>
      <trkpt lat="45.47849" lon="5.35347">
        <ele>649.8</ele>
        <time>2011-12-11T09:11:52Z</time>
      </trkpt>
      <trkpt lat="45.47857" lon="5.35343">
        <ele>653.1</ele>
        <time>2011-12-11T09:11:57Z</time>
      </trkpt>
      <trkpt lat="45.47864" lon="5.35343">
        <ele>654.3</ele>
        <time>2011-12-11T09:12:01Z</time>
      </trkpt>
      <trkpt lat="45.47879" lon="5.35338">
        <ele>657.4</ele>
        <time>2011-12-11T09:12:08Z</time>
      </trkpt>
      <trkpt lat="45.47887" lon="5.35337">
        <ele>656.8</ele>
        <time>2011-12-11T09:12:11Z</time>
      </trkpt>
      <trkpt lat="45.47893" lon="5.35332">
        <ele>656.9</ele>
        <time>2011-12-11T09:12:15Z</time>
      </trkpt>
      <trkpt lat="45.47899" lon="5.3533">
        <ele>658.4</ele>
        <time>2011-12-11T09:12:26Z</time>
      </trkpt>
      <trkpt lat="45.47922" lon="5.35323">
        <ele>659.2</ele>
        <time>2011-12-11T09:12:33Z</time>
      </trkpt>
      <trkpt lat="45.47929" lon="5.35322">
        <ele>659.1</ele>
        <time>2011-12-11T09:12:35Z</time>
      </trkpt>
      <trkpt lat="45.47946" lon="5.35327">
        <ele>659.5</ele>
        <time>2011-12-11T09:12:41Z</time>
      </trkpt>
      <trkpt lat="45.47946" lon="5.35327">
        <ele>614.1</ele>
        <time>2011-12-11T09:12:53Z</time>
      </trkpt>
      <trkpt lat="45.47946" lon="5.35327">
        <ele>614.1</ele>
        <time>2011-12-11T09:13:15Z</time>
      </trkpt>
      <trkpt lat="45.47973" lon="5.35318">
        <ele>662.2</ele>
        <time>2011-12-11T09:13:19Z</time>
      </trkpt>
      <trkpt lat="45.47982" lon="5.35314">
        <ele>663.2</ele>
        <time>2011-12-11T09:13:30Z</time>
      </trkpt>
      <trkpt lat="45.47995" lon="5.35311">
        <ele>665.9</ele>
        <time>2011-12-11T09:13:36Z</time>
      </trkpt>
      <trkpt lat="45.48002" lon="5.35314">
        <ele>667.6</ele>
        <time>2011-12-11T09:13:40Z</time>
      </trkpt>
      <trkpt lat="45.48009" lon="5.35309">
        <ele>668</ele>
        <time>2011-12-11T09:13:49Z</time>
      </trkpt>
      <trkpt lat="45.48035" lon="5.35301">
        <ele>669.5</ele>
        <time>2011-12-11T09:13:55Z</time>
      </trkpt>
      <trkpt lat="45.48047" lon="5.35292">
        <ele>672.9</ele>
        <time>2011-12-11T09:14:00Z</time>
      </trkpt>
      <trkpt lat="45.48054" lon="5.35289">
        <ele>672.9</ele>
        <time>2011-12-11T09:14:03Z</time>
      </trkpt>
      <trkpt lat="45.48056" lon="5.35279">
        <ele>672.7</ele>
        <time>2011-12-11T09:14:07Z</time>
      </trkpt>
      <trkpt lat="45.48063" lon="5.35272">
        <ele>674.1</ele>
        <time>2011-12-11T09:14:13Z</time>
      </trkpt>
      <trkpt lat="45.48064" lon="5.35262">
        <ele>674.2</ele>
        <time>2011-12-11T09:14:17Z</time>
      </trkpt>
      <trkpt lat="45.48064" lon="5.3525">
        <ele>674.3</ele>
        <time>2011-12-11T09:14:21Z</time>
      </trkpt>
      <trkpt lat="45.48064" lon="5.35241">
        <ele>674.5</ele>
        <time>2011-12-11T09:14:26Z</time>
      </trkpt>
      <trkpt lat="45.48063" lon="5.3523">
        <ele>675.1</ele>
        <time>2011-12-11T09:14:29Z</time>
      </trkpt>
      <trkpt lat="45.48068" lon="5.35213">
        <ele>680</ele>
        <time>2011-12-11T09:14:37Z</time>
      </trkpt>
      <trkpt lat="45.4807" lon="5.35202">
        <ele>682</ele>
        <time>2011-12-11T09:14:42Z</time>
      </trkpt>
      <trkpt lat="45.48079" lon="5.35189">
        <ele>681.5</ele>
        <time>2011-12-11T09:14:48Z</time>
      </trkpt>
      <trkpt lat="45.48088" lon="5.35176">
        <ele>684.4</ele>
        <time>2011-12-11T09:14:56Z</time>
      </trkpt>
      <trkpt lat="45.48094" lon="5.35168">
        <ele>686</ele>
        <time>2011-12-11T09:15:00Z</time>
      </trkpt>
      <trkpt lat="45.48099" lon="5.35159">
        <ele>687.5</ele>
        <time>2011-12-11T09:15:04Z</time>
      </trkpt>
      <trkpt lat="45.48107" lon="5.35144">
        <ele>688.9</ele>
        <time>2011-12-11T09:15:12Z</time>
      </trkpt>
      <trkpt lat="45.48105" lon="5.35135">
        <ele>689.7</ele>
        <time>2011-12-11T09:15:16Z</time>
      </trkpt>
      <trkpt lat="45.48101" lon="5.35126">
        <ele>690.9</ele>
        <time>2011-12-11T09:15:18Z</time>
      </trkpt>
      <trkpt lat="45.48089" lon="5.35117">
        <ele>691.4</ele>
        <time>2011-12-11T09:15:24Z</time>
      </trkpt>
      <trkpt lat="45.48082" lon="5.35115">
        <ele>693.7</ele>
        <time>2011-12-11T09:15:27Z</time>
      </trkpt>
      <trkpt lat="45.48075" lon="5.35111">
        <ele>695.3</ele>
        <time>2011-12-11T09:15:30Z</time>
      </trkpt>
      <trkpt lat="45.48068" lon="5.35109">
        <ele>695.1</ele>
        <time>2011-12-11T09:15:33Z</time>
      </trkpt>
      <trkpt lat="45.48061" lon="5.35103">
        <ele>695</ele>
        <time>2011-12-11T09:15:37Z</time>
      </trkpt>
      <trkpt lat="45.48043" lon="5.35094">
        <ele>694.3</ele>
        <time>2011-12-11T09:15:44Z</time>
      </trkpt>
      <trkpt lat="45.48035" lon="5.35091">
        <ele>693.8</ele>
        <time>2011-12-11T09:15:47Z</time>
      </trkpt>
      <trkpt lat="45.48028" lon="5.35088">
        <ele>694</ele>
        <time>2011-12-11T09:15:50Z</time>
      </trkpt>
      <trkpt lat="45.48013" lon="5.35082">
        <ele>695</ele>
        <time>2011-12-11T09:15:59Z</time>
      </trkpt>
      <trkpt lat="45.48006" lon="5.35075">
        <ele>694.8</ele>
        <time>2011-12-11T09:16:02Z</time>
      </trkpt>
      <trkpt lat="45.47992" lon="5.35066">
        <ele>694.9</ele>
        <time>2011-12-11T09:16:07Z</time>
      </trkpt>
      <trkpt lat="45.47986" lon="5.35064">
        <ele>695.4</ele>
        <time>2011-12-11T09:16:11Z</time>
      </trkpt>
      <trkpt lat="45.47972" lon="5.35052">
        <ele>695.3</ele>
        <time>2011-12-11T09:16:15Z</time>
      </trkpt>
      <trkpt lat="45.47966" lon="5.35047">
        <ele>694.9</ele>
        <time>2011-12-11T09:16:18Z</time>
      </trkpt>
      <trkpt lat="45.47951" lon="5.35039">
        <ele>695.5</ele>
        <time>2011-12-11T09:16:23Z</time>
      </trkpt>
      <trkpt lat="45.47944" lon="5.35037">
        <ele>694.8</ele>
        <time>2011-12-11T09:16:26Z</time>
      </trkpt>
      <trkpt lat="45.47938" lon="5.3504">
        <ele>693.8</ele>
        <time>2011-12-11T09:16:30Z</time>
      </trkpt>
      <trkpt lat="45.4793" lon="5.35039">
        <ele>693.1</ele>
        <time>2011-12-11T09:16:33Z</time>
      </trkpt>
      <trkpt lat="45.47923" lon="5.3504">
        <ele>693.9</ele>
        <time>2011-12-11T09:16:37Z</time>
      </trkpt>
      <trkpt lat="45.47908" lon="5.35042">
        <ele>693.8</ele>
        <time>2011-12-11T09:16:43Z</time>
      </trkpt>
      <trkpt lat="45.47897" lon="5.35052">
        <ele>692.1</ele>
        <time>2011-12-11T09:16:52Z</time>
      </trkpt>
      <trkpt lat="45.47883" lon="5.35046">
        <ele>693.6</ele>
        <time>2011-12-11T09:16:56Z</time>
      </trkpt>
      <trkpt lat="45.47865" lon="5.35038">
        <ele>693.9</ele>
        <time>2011-12-11T09:17:00Z</time>
      </trkpt>
      <trkpt lat="45.47849" lon="5.35038">
        <ele>696.7</ele>
        <time>2011-12-11T09:17:06Z</time>
      </trkpt>
      <trkpt lat="45.47842" lon="5.35038">
        <ele>697.1</ele>
        <time>2011-12-11T09:17:09Z</time>
      </trkpt>
      <trkpt lat="45.47828" lon="5.35044">
        <ele>696.3</ele>
        <time>2011-12-11T09:17:15Z</time>
      </trkpt>
      <trkpt lat="45.47815" lon="5.35046">
        <ele>696.4</ele>
        <time>2011-12-11T09:17:20Z</time>
      </trkpt>
      <trkpt lat="45.47807" lon="5.35045">
        <ele>696.6</ele>
        <time>2011-12-11T09:17:22Z</time>
      </trkpt>
      <trkpt lat="45.47793" lon="5.35043">
        <ele>697.4</ele>
        <time>2011-12-11T09:17:28Z</time>
      </trkpt>
      <trkpt lat="45.47787" lon="5.35045">
        <ele>695.7</ele>
        <time>2011-12-11T09:17:31Z</time>
      </trkpt>
      <trkpt lat="45.47778" lon="5.35045">
        <ele>695.6</ele>
        <time>2011-12-11T09:17:35Z</time>
      </trkpt>
      <trkpt lat="45.47778" lon="5.35045">
        <ele>622.2</ele>
        <time>2011-12-11T09:17:47Z</time>
      </trkpt>
      <trkpt lat="45.47778" lon="5.35045">
        <ele>622.2</ele>
        <time>2011-12-11T09:17:49Z</time>
      </trkpt>
      <trkpt lat="45.4774" lon="5.3504">
        <ele>694.5</ele>
        <time>2011-12-11T09:17:51Z</time>
      </trkpt>
      <trkpt lat="45.47734" lon="5.35038">
        <ele>694.1</ele>
        <time>2011-12-11T09:17:53Z</time>
      </trkpt>
      <trkpt lat="45.47727" lon="5.35039">
        <ele>694.7</ele>
        <time>2011-12-11T09:17:56Z</time>
      </trkpt>
      <trkpt lat="45.47709" lon="5.3504">
        <ele>692.9</ele>
        <time>2011-12-11T09:18:02Z</time>
      </trkpt>
      <trkpt lat="45.47701" lon="5.35042">
        <ele>692.3</ele>
        <time>2011-12-11T09:18:06Z</time>
      </trkpt>
      <trkpt lat="45.47694" lon="5.35041">
        <ele>691.8</ele>
        <time>2011-12-11T09:18:10Z</time>
      </trkpt>
      <trkpt lat="45.47687" lon="5.35041">
        <ele>691.3</ele>
        <time>2011-12-11T09:18:13Z</time>
      </trkpt>
      <trkpt lat="45.47673" lon="5.35043">
        <ele>691.3</ele>
        <time>2011-12-11T09:18:18Z</time>
      </trkpt>
      <trkpt lat="45.47656" lon="5.35038">
        <ele>691.2</ele>
        <time>2011-12-11T09:18:23Z</time>
      </trkpt>
      <trkpt lat="45.47641" lon="5.35037">
        <ele>690.5</ele>
        <time>2011-12-11T09:18:27Z</time>
      </trkpt>
      <trkpt lat="45.47631" lon="5.35037">
        <ele>690.3</ele>
        <time>2011-12-11T09:18:30Z</time>
      </trkpt>
      <trkpt lat="45.47622" lon="5.35039">
        <ele>689.4</ele>
        <time>2011-12-11T09:18:33Z</time>
      </trkpt>
      <trkpt lat="45.47607" lon="5.35044">
        <ele>687.8</ele>
        <time>2011-12-11T09:18:39Z</time>
      </trkpt>
      <trkpt lat="45.47594" lon="5.35057">
        <ele>685.4</ele>
        <time>2011-12-11T09:18:46Z</time>
      </trkpt>
      <trkpt lat="45.47587" lon="5.3506">
        <ele>684.4</ele>
        <time>2011-12-11T09:18:49Z</time>
      </trkpt>
      <trkpt lat="45.47575" lon="5.35069">
        <ele>683.2</ele>
        <time>2011-12-11T09:18:57Z</time>
      </trkpt>
      <trkpt lat="45.47553" lon="5.35071">
        <ele>683.8</ele>
        <time>2011-12-11T09:19:06Z</time>
      </trkpt>
      <trkpt lat="45.47538" lon="5.35068">
        <ele>682.7</ele>
        <time>2011-12-11T09:19:10Z</time>
      </trkpt>
      <trkpt lat="45.47524" lon="5.35065">
        <ele>683.5</ele>
        <time>2011-12-11T09:19:14Z</time>
      </trkpt>
      <trkpt lat="45.47508" lon="5.35056">
        <ele>681.5</ele>
        <time>2011-12-11T09:19:18Z</time>
      </trkpt>
      <trkpt lat="45.47491" lon="5.35052">
        <ele>678.2</ele>
        <time>2011-12-11T09:19:23Z</time>
      </trkpt>
      <trkpt lat="45.47482" lon="5.35051">
        <ele>678.3</ele>
        <time>2011-12-11T09:19:26Z</time>
      </trkpt>
      <trkpt lat="45.47476" lon="5.35047">
        <ele>676.2</ele>
        <time>2011-12-11T09:19:29Z</time>
      </trkpt>
      <trkpt lat="45.47469" lon="5.35046">
        <ele>675.6</ele>
        <time>2011-12-11T09:19:32Z</time>
      </trkpt>
      <trkpt lat="45.47462" lon="5.35043">
        <ele>673.5</ele>
        <time>2011-12-11T09:19:36Z</time>
      </trkpt>
      <trkpt lat="45.47442" lon="5.35023">
        <ele>672.8</ele>
        <time>2011-12-11T09:19:46Z</time>
      </trkpt>
      <trkpt lat="45.47434" lon="5.3502">
        <ele>671.3</ele>
        <time>2011-12-11T09:19:50Z</time>
      </trkpt>
      <trkpt lat="45.47428" lon="5.35019">
        <ele>672.2</ele>
        <time>2011-12-11T09:19:53Z</time>
      </trkpt>
      <trkpt lat="45.47413" lon="5.35006">
        <ele>671.6</ele>
        <time>2011-12-11T09:19:59Z</time>
      </trkpt>
      <trkpt lat="45.47403" lon="5.34992">
        <ele>669.2</ele>
        <time>2011-12-11T09:20:03Z</time>
      </trkpt>
      <trkpt lat="45.47399" lon="5.34978">
        <ele>667.6</ele>
        <time>2011-12-11T09:20:06Z</time>
      </trkpt>
      <trkpt lat="45.47398" lon="5.34968">
        <ele>665.6</ele>
        <time>2011-12-11T09:20:08Z</time>
      </trkpt>
      <trkpt lat="45.47399" lon="5.34945">
        <ele>661.9</ele>
        <time>2011-12-11T09:20:15Z</time>
      </trkpt>
      <trkpt lat="45.47396" lon="5.34936">
        <ele>661.2</ele>
        <time>2011-12-11T09:20:18Z</time>
      </trkpt>
      <trkpt lat="45.47391" lon="5.34926">
        <ele>658.9</ele>
        <time>2011-12-11T09:20:22Z</time>
      </trkpt>
      <trkpt lat="45.47379" lon="5.34914">
        <ele>657.6</ele>
        <time>2011-12-11T09:20:26Z</time>
      </trkpt>
      <trkpt lat="45.47372" lon="5.34912">
        <ele>657.6</ele>
        <time>2011-12-11T09:20:29Z</time>
      </trkpt>
      <trkpt lat="45.47358" lon="5.34913">
        <ele>657.2</ele>
        <time>2011-12-11T09:20:34Z</time>
      </trkpt>
      <trkpt lat="45.47351" lon="5.34919">
        <ele>655.8</ele>
        <time>2011-12-11T09:20:37Z</time>
      </trkpt>
      <trkpt lat="45.47343" lon="5.34923">
        <ele>654.3</ele>
        <time>2011-12-11T09:20:40Z</time>
      </trkpt>
      <trkpt lat="45.47331" lon="5.34932">
        <ele>654.8</ele>
        <time>2011-12-11T09:20:46Z</time>
      </trkpt>
      <trkpt lat="45.47323" lon="5.34933">
        <ele>654</ele>
        <time>2011-12-11T09:20:49Z</time>
      </trkpt>
      <trkpt lat="45.47315" lon="5.34938">
        <ele>652.5</ele>
        <time>2011-12-11T09:20:52Z</time>
      </trkpt>
      <trkpt lat="45.47298" lon="5.34942">
        <ele>649.1</ele>
        <time>2011-12-11T09:20:58Z</time>
      </trkpt>
      <trkpt lat="45.47295" lon="5.34952">
        <ele>647.4</ele>
        <time>2011-12-11T09:21:01Z</time>
      </trkpt>
      <trkpt lat="45.47285" lon="5.34963">
        <ele>645.9</ele>
        <time>2011-12-11T09:21:07Z</time>
      </trkpt>
      <trkpt lat="45.47279" lon="5.34969">
        <ele>645.7</ele>
        <time>2011-12-11T09:21:10Z</time>
      </trkpt>
      <trkpt lat="45.47267" lon="5.34978">
        <ele>643.1</ele>
        <time>2011-12-11T09:21:15Z</time>
      </trkpt>
      <trkpt lat="45.47261" lon="5.34988">
        <ele>641.2</ele>
        <time>2011-12-11T09:21:18Z</time>
      </trkpt>
      <trkpt lat="45.4725" lon="5.34999">
        <ele>641.1</ele>
        <time>2011-12-11T09:21:23Z</time>
      </trkpt>
      <trkpt lat="45.47243" lon="5.35009">
        <ele>641.1</ele>
        <time>2011-12-11T09:21:26Z</time>
      </trkpt>
      <trkpt lat="45.47236" lon="5.35017">
        <ele>640.4</ele>
        <time>2011-12-11T09:21:29Z</time>
      </trkpt>
      <trkpt lat="45.47224" lon="5.35027">
        <ele>639.6</ele>
        <time>2011-12-11T09:21:35Z</time>
      </trkpt>
      <trkpt lat="45.47217" lon="5.35035">
        <ele>642.6</ele>
        <time>2011-12-11T09:21:38Z</time>
      </trkpt>
      <trkpt lat="45.47212" lon="5.35041">
        <ele>644.2</ele>
        <time>2011-12-11T09:21:40Z</time>
      </trkpt>
      <trkpt lat="45.47198" lon="5.35054">
        <ele>643.8</ele>
        <time>2011-12-11T09:21:47Z</time>
      </trkpt>
      <trkpt lat="45.47191" lon="5.35062">
        <ele>643.5</ele>
        <time>2011-12-11T09:21:51Z</time>
      </trkpt>
      <trkpt lat="45.47176" lon="5.35072">
        <ele>643.5</ele>
        <time>2011-12-11T09:21:57Z</time>
      </trkpt>
      <trkpt lat="45.47162" lon="5.35076">
        <ele>643</ele>
        <time>2011-12-11T09:22:03Z</time>
      </trkpt>
      <trkpt lat="45.47147" lon="5.35085">
        <ele>644.2</ele>
        <time>2011-12-11T09:22:09Z</time>
      </trkpt>
      <trkpt lat="45.47143" lon="5.35107">
        <ele>637.3</ele>
        <time>2011-12-11T09:22:15Z</time>
      </trkpt>
      <trkpt lat="45.47139" lon="5.35114">
        <ele>636.9</ele>
        <time>2011-12-11T09:22:17Z</time>
      </trkpt>
      <trkpt lat="45.47127" lon="5.3513">
        <ele>635.8</ele>
        <time>2011-12-11T09:22:23Z</time>
      </trkpt>
      <trkpt lat="45.4712" lon="5.35136">
        <ele>635</ele>
        <time>2011-12-11T09:22:26Z</time>
      </trkpt>
      <trkpt lat="45.47101" lon="5.35155">
        <ele>632.9</ele>
        <time>2011-12-11T09:22:35Z</time>
      </trkpt>
      <trkpt lat="45.47095" lon="5.35159">
        <ele>631.9</ele>
        <time>2011-12-11T09:22:38Z</time>
      </trkpt>
      <trkpt lat="45.47082" lon="5.35164">
        <ele>630.4</ele>
        <time>2011-12-11T09:22:43Z</time>
      </trkpt>
      <trkpt lat="45.47068" lon="5.35165">
        <ele>630.4</ele>
        <time>2011-12-11T09:22:48Z</time>
      </trkpt>
      <trkpt lat="45.47054" lon="5.3517">
        <ele>630.8</ele>
        <time>2011-12-11T09:22:54Z</time>
      </trkpt>
      <trkpt lat="45.47043" lon="5.35169">
        <ele>630.2</ele>
        <time>2011-12-11T09:22:57Z</time>
      </trkpt>
      <trkpt lat="45.47028" lon="5.3517">
        <ele>629.8</ele>
        <time>2011-12-11T09:23:03Z</time>
      </trkpt>
      <trkpt lat="45.47012" lon="5.35171">
        <ele>630.3</ele>
        <time>2011-12-11T09:23:09Z</time>
      </trkpt>
      <trkpt lat="45.46994" lon="5.3517">
        <ele>630.5</ele>
        <time>2011-12-11T09:23:15Z</time>
      </trkpt>
      <trkpt lat="45.46988" lon="5.35169">
        <ele>629.9</ele>
        <time>2011-12-11T09:23:18Z</time>
      </trkpt>
      <trkpt lat="45.4698" lon="5.35167">
        <ele>630.2</ele>
        <time>2011-12-11T09:23:21Z</time>
      </trkpt>
      <trkpt lat="45.46963" lon="5.35166">
        <ele>630.3</ele>
        <time>2011-12-11T09:23:27Z</time>
      </trkpt>
      <trkpt lat="45.46957" lon="5.35171">
        <ele>630.2</ele>
        <time>2011-12-11T09:23:29Z</time>
      </trkpt>
      <trkpt lat="45.46942" lon="5.3517">
        <ele>629.9</ele>
        <time>2011-12-11T09:23:35Z</time>
      </trkpt>
      <trkpt lat="45.46933" lon="5.3517">
        <ele>629</ele>
        <time>2011-12-11T09:23:37Z</time>
      </trkpt>
      <trkpt lat="45.46925" lon="5.35171">
        <ele>629.5</ele>
        <time>2011-12-11T09:23:40Z</time>
      </trkpt>
      <trkpt lat="45.4691" lon="5.35171">
        <ele>629</ele>
        <time>2011-12-11T09:23:46Z</time>
      </trkpt>
      <trkpt lat="45.46898" lon="5.35164">
        <ele>628.2</ele>
        <time>2011-12-11T09:23:51Z</time>
      </trkpt>
      <trkpt lat="45.46886" lon="5.3517">
        <ele>627.8</ele>
        <time>2011-12-11T09:23:55Z</time>
      </trkpt>
      <trkpt lat="45.46877" lon="5.35171">
        <ele>627.2</ele>
        <time>2011-12-11T09:23:58Z</time>
      </trkpt>
      <trkpt lat="45.46861" lon="5.35172">
        <ele>626.4</ele>
        <time>2011-12-11T09:24:04Z</time>
      </trkpt>
      <trkpt lat="45.46853" lon="5.35173">
        <ele>626.1</ele>
        <time>2011-12-11T09:24:07Z</time>
      </trkpt>
      <trkpt lat="45.46847" lon="5.35173">
        <ele>627</ele>
        <time>2011-12-11T09:24:09Z</time>
      </trkpt>
      <trkpt lat="45.46831" lon="5.35174">
        <ele>626.3</ele>
        <time>2011-12-11T09:24:16Z</time>
      </trkpt>
      <trkpt lat="45.46823" lon="5.35174">
        <ele>626.2</ele>
        <time>2011-12-11T09:24:19Z</time>
      </trkpt>
      <trkpt lat="45.46808" lon="5.3517">
        <ele>624.8</ele>
        <time>2011-12-11T09:24:26Z</time>
      </trkpt>
      <trkpt lat="45.46794" lon="5.35167">
        <ele>623.6</ele>
        <time>2011-12-11T09:24:32Z</time>
      </trkpt>
      <trkpt lat="45.46786" lon="5.35168">
        <ele>623.6</ele>
        <time>2011-12-11T09:24:36Z</time>
      </trkpt>
      <trkpt lat="45.46769" lon="5.35162">
        <ele>622.9</ele>
        <time>2011-12-11T09:24:43Z</time>
      </trkpt>
      <trkpt lat="45.46761" lon="5.35157">
        <ele>623.2</ele>
        <time>2011-12-11T09:24:46Z</time>
      </trkpt>
      <trkpt lat="45.46748" lon="5.35153">
        <ele>622.4</ele>
        <time>2011-12-11T09:24:51Z</time>
      </trkpt>
      <trkpt lat="45.4674" lon="5.35152">
        <ele>622.3</ele>
        <time>2011-12-11T09:24:54Z</time>
      </trkpt>
      <trkpt lat="45.4672" lon="5.35147">
        <ele>621</ele>
        <time>2011-12-11T09:25:02Z</time>
      </trkpt>
      <trkpt lat="45.46713" lon="5.35146">
        <ele>620.7</ele>
        <time>2011-12-11T09:25:05Z</time>
      </trkpt>
      <trkpt lat="45.46705" lon="5.35143">
        <ele>620.6</ele>
        <time>2011-12-11T09:25:09Z</time>
      </trkpt>
      <trkpt lat="45.46699" lon="5.35138">
        <ele>620.2</ele>
        <time>2011-12-11T09:25:12Z</time>
      </trkpt>
      <trkpt lat="45.46682" lon="5.35129">
        <ele>619.9</ele>
        <time>2011-12-11T09:25:18Z</time>
      </trkpt>
      <trkpt lat="45.46669" lon="5.35125">
        <ele>619.8</ele>
        <time>2011-12-11T09:25:23Z</time>
      </trkpt>
      <trkpt lat="45.46661" lon="5.35124">
        <ele>620</ele>
        <time>2011-12-11T09:25:26Z</time>
      </trkpt>
      <trkpt lat="45.46652" lon="5.35125">
        <ele>620.4</ele>
        <time>2011-12-11T09:25:30Z</time>
      </trkpt>
      <trkpt lat="45.46645" lon="5.35119">
        <ele>620.1</ele>
        <time>2011-12-11T09:25:32Z</time>
      </trkpt>
      <trkpt lat="45.46629" lon="5.35122">
        <ele>618.8</ele>
        <time>2011-12-11T09:25:38Z</time>
      </trkpt>
      <trkpt lat="45.46622" lon="5.35126">
        <ele>618.7</ele>
        <time>2011-12-11T09:25:41Z</time>
      </trkpt>
      <trkpt lat="45.46608" lon="5.35124">
        <ele>618.1</ele>
        <time>2011-12-11T09:25:47Z</time>
      </trkpt>
      <trkpt lat="45.466" lon="5.35126">
        <ele>618.3</ele>
        <time>2011-12-11T09:25:50Z</time>
      </trkpt>
      <trkpt lat="45.46593" lon="5.35124">
        <ele>618.5</ele>
        <time>2011-12-11T09:25:53Z</time>
      </trkpt>
      <trkpt lat="45.4658" lon="5.35115">
        <ele>617.9</ele>
        <time>2011-12-11T09:25:58Z</time>
      </trkpt>
      <trkpt lat="45.46556" lon="5.35108">
        <ele>618.4</ele>
        <time>2011-12-11T09:26:07Z</time>
      </trkpt>
      <trkpt lat="45.46549" lon="5.35109">
        <ele>617.7</ele>
        <time>2011-12-11T09:26:10Z</time>
      </trkpt>
      <trkpt lat="45.46542" lon="5.35107">
        <ele>617.9</ele>
        <time>2011-12-11T09:26:13Z</time>
      </trkpt>
      <trkpt lat="45.46527" lon="5.35101">
        <ele>619.7</ele>
        <time>2011-12-11T09:26:19Z</time>
      </trkpt>
      <trkpt lat="45.46505" lon="5.351">
        <ele>622</ele>
        <time>2011-12-11T09:26:27Z</time>
      </trkpt>
      <trkpt lat="45.46496" lon="5.35098">
        <ele>623.4</ele>
        <time>2011-12-11T09:26:29Z</time>
      </trkpt>
      <trkpt lat="45.46483" lon="5.35091">
        <ele>622.1</ele>
        <time>2011-12-11T09:26:35Z</time>
      </trkpt>
      <trkpt lat="45.46477" lon="5.35087">
        <ele>621.5</ele>
        <time>2011-12-11T09:26:38Z</time>
      </trkpt>
      <trkpt lat="45.46456" lon="5.35077">
        <ele>620.2</ele>
        <time>2011-12-11T09:26:47Z</time>
      </trkpt>
      <trkpt lat="45.46449" lon="5.35077">
        <ele>619.2</ele>
        <time>2011-12-11T09:26:49Z</time>
      </trkpt>
      <trkpt lat="45.46436" lon="5.35073">
        <ele>616.5</ele>
        <time>2011-12-11T09:26:54Z</time>
      </trkpt>
      <trkpt lat="45.46428" lon="5.35074">
        <ele>615.3</ele>
        <time>2011-12-11T09:26:58Z</time>
      </trkpt>
      <trkpt lat="45.4642" lon="5.35075">
        <ele>615.7</ele>
        <time>2011-12-11T09:27:01Z</time>
      </trkpt>
      <trkpt lat="45.46412" lon="5.35077">
        <ele>615.8</ele>
        <time>2011-12-11T09:27:04Z</time>
      </trkpt>
      <trkpt lat="45.46398" lon="5.35076">
        <ele>613</ele>
        <time>2011-12-11T09:27:10Z</time>
      </trkpt>
      <trkpt lat="45.46383" lon="5.35072">
        <ele>612.2</ele>
        <time>2011-12-11T09:27:15Z</time>
      </trkpt>
      <trkpt lat="45.46375" lon="5.35072">
        <ele>613.3</ele>
        <time>2011-12-11T09:27:18Z</time>
      </trkpt>
      <trkpt lat="45.46367" lon="5.35069">
        <ele>612.4</ele>
        <time>2011-12-11T09:27:21Z</time>
      </trkpt>
      <trkpt lat="45.46354" lon="5.35063">
        <ele>611.8</ele>
        <time>2011-12-11T09:27:26Z</time>
      </trkpt>
      <trkpt lat="45.46346" lon="5.35059">
        <ele>611.3</ele>
        <time>2011-12-11T09:27:29Z</time>
      </trkpt>
      <trkpt lat="45.46339" lon="5.35057">
        <ele>612.2</ele>
        <time>2011-12-11T09:27:32Z</time>
      </trkpt>
      <trkpt lat="45.46325" lon="5.35048">
        <ele>612.3</ele>
        <time>2011-12-11T09:27:39Z</time>
      </trkpt>
      <trkpt lat="45.46309" lon="5.35042">
        <ele>612.3</ele>
        <time>2011-12-11T09:27:45Z</time>
      </trkpt>
      <trkpt lat="45.46291" lon="5.35042">
        <ele>612.4</ele>
        <time>2011-12-11T09:27:51Z</time>
      </trkpt>
      <trkpt lat="45.46284" lon="5.35042">
        <ele>612.9</ele>
        <time>2011-12-11T09:27:53Z</time>
      </trkpt>
      <trkpt lat="45.46272" lon="5.35036">
        <ele>612.2</ele>
        <time>2011-12-11T09:27:59Z</time>
      </trkpt>
      <trkpt lat="45.46254" lon="5.35013">
        <ele>610.2</ele>
        <time>2011-12-11T09:28:07Z</time>
      </trkpt>
      <trkpt lat="45.46249" lon="5.35007">
        <ele>608.3</ele>
        <time>2011-12-11T09:28:11Z</time>
      </trkpt>
      <trkpt lat="45.46242" lon="5.35001">
        <ele>608.1</ele>
        <time>2011-12-11T09:28:14Z</time>
      </trkpt>
      <trkpt lat="45.46231" lon="5.34985">
        <ele>608.1</ele>
        <time>2011-12-11T09:28:19Z</time>
      </trkpt>
      <trkpt lat="45.46223" lon="5.34975">
        <ele>607</ele>
        <time>2011-12-11T09:28:22Z</time>
      </trkpt>
      <trkpt lat="45.46212" lon="5.3495">
        <ele>606.4</ele>
        <time>2011-12-11T09:28:26Z</time>
      </trkpt>
      <trkpt lat="45.46196" lon="5.34949">
        <ele>606.8</ele>
        <time>2011-12-11T09:28:34Z</time>
      </trkpt>
      <trkpt lat="45.46193" lon="5.34958">
        <ele>602.7</ele>
        <time>2011-12-11T09:28:37Z</time>
      </trkpt>
      <trkpt lat="45.4618" lon="5.34973">
        <ele>601.5</ele>
        <time>2011-12-11T09:28:43Z</time>
      </trkpt>
      <trkpt lat="45.46171" lon="5.34978">
        <ele>603.3</ele>
        <time>2011-12-11T09:28:46Z</time>
      </trkpt>
      <trkpt lat="45.46153" lon="5.34997">
        <ele>601.6</ele>
        <time>2011-12-11T09:28:55Z</time>
      </trkpt>
      <trkpt lat="45.46147" lon="5.35003">
        <ele>601.7</ele>
        <time>2011-12-11T09:28:58Z</time>
      </trkpt>
      <trkpt lat="45.46134" lon="5.35011">
        <ele>600.9</ele>
        <time>2011-12-11T09:29:03Z</time>
      </trkpt>
      <trkpt lat="45.4612" lon="5.35018">
        <ele>600.6</ele>
        <time>2011-12-11T09:29:09Z</time>
      </trkpt>
      <trkpt lat="45.4611" lon="5.35028">
        <ele>598.4</ele>
        <time>2011-12-11T09:29:14Z</time>
      </trkpt>
      <trkpt lat="45.46097" lon="5.35028">
        <ele>597</ele>
        <time>2011-12-11T09:29:18Z</time>
      </trkpt>
      <trkpt lat="45.46089" lon="5.3503">
        <ele>597.5</ele>
        <time>2011-12-11T09:29:21Z</time>
      </trkpt>
      <trkpt lat="45.46074" lon="5.35039">
        <ele>595.3</ele>
        <time>2011-12-11T09:29:27Z</time>
      </trkpt>
      <trkpt lat="45.46067" lon="5.35043">
        <ele>595.1</ele>
        <time>2011-12-11T09:29:30Z</time>
      </trkpt>
      <trkpt lat="45.46064" lon="5.35052">
        <ele>594.9</ele>
        <time>2011-12-11T09:29:33Z</time>
      </trkpt>
      <trkpt lat="45.46065" lon="5.35072">
        <ele>591.9</ele>
        <time>2011-12-11T09:29:39Z</time>
      </trkpt>
      <trkpt lat="45.46065" lon="5.35082">
        <ele>591.1</ele>
        <time>2011-12-11T09:29:42Z</time>
      </trkpt>
      <trkpt lat="45.46063" lon="5.35093">
        <ele>590.2</ele>
        <time>2011-12-11T09:29:45Z</time>
      </trkpt>
      <trkpt lat="45.46062" lon="5.35112">
        <ele>586.3</ele>
        <time>2011-12-11T09:29:51Z</time>
      </trkpt>
      <trkpt lat="45.46059" lon="5.35124">
        <ele>583.9</ele>
        <time>2011-12-11T09:29:55Z</time>
      </trkpt>
      <trkpt lat="45.46054" lon="5.35134">
        <ele>584.2</ele>
        <time>2011-12-11T09:29:58Z</time>
      </trkpt>
      <trkpt lat="45.46033" lon="5.35151">
        <ele>585</ele>
        <time>2011-12-11T09:30:07Z</time>
      </trkpt>
      <trkpt lat="45.46026" lon="5.35155">
        <ele>586.5</ele>
        <time>2011-12-11T09:30:10Z</time>
      </trkpt>
      <trkpt lat="45.46014" lon="5.35169">
        <ele>585</ele>
        <time>2011-12-11T09:30:15Z</time>
      </trkpt>
      <trkpt lat="45.46008" lon="5.35176">
        <ele>584.9</ele>
        <time>2011-12-11T09:30:18Z</time>
      </trkpt>
      <trkpt lat="45.46001" lon="5.35179">
        <ele>583.7</ele>
        <time>2011-12-11T09:30:21Z</time>
      </trkpt>
      <trkpt lat="45.45987" lon="5.3519">
        <ele>585.9</ele>
        <time>2011-12-11T09:30:27Z</time>
      </trkpt>
      <trkpt lat="45.45974" lon="5.35189">
        <ele>586.5</ele>
        <time>2011-12-11T09:30:34Z</time>
      </trkpt>
      <trkpt lat="45.45958" lon="5.35179">
        <ele>586.6</ele>
        <time>2011-12-11T09:30:42Z</time>
      </trkpt>
      <trkpt lat="45.45952" lon="5.35177">
        <ele>586.8</ele>
        <time>2011-12-11T09:30:45Z</time>
      </trkpt>
      <trkpt lat="45.45935" lon="5.35165">
        <ele>587.1</ele>
        <time>2011-12-11T09:30:51Z</time>
      </trkpt>
      <trkpt lat="45.45928" lon="5.35157">
        <ele>586.3</ele>
        <time>2011-12-11T09:30:54Z</time>
      </trkpt>
      <trkpt lat="45.45922" lon="5.35153">
        <ele>586.4</ele>
        <time>2011-12-11T09:30:58Z</time>
      </trkpt>
      <trkpt lat="45.45906" lon="5.35152">
        <ele>584.8</ele>
        <time>2011-12-11T09:31:08Z</time>
      </trkpt>
      <trkpt lat="45.459" lon="5.35149">
        <ele>585.1</ele>
        <time>2011-12-11T09:31:15Z</time>
      </trkpt>
      <trkpt lat="45.45882" lon="5.35134">
        <ele>587.5</ele>
        <time>2011-12-11T09:31:23Z</time>
      </trkpt>
      <trkpt lat="45.45869" lon="5.35123">
        <ele>589.2</ele>
        <time>2011-12-11T09:31:27Z</time>
      </trkpt>
      <trkpt lat="45.4585" lon="5.35106">
        <ele>588</ele>
        <time>2011-12-11T09:31:31Z</time>
      </trkpt>
      <trkpt lat="45.45838" lon="5.35093">
        <ele>588</ele>
        <time>2011-12-11T09:31:35Z</time>
      </trkpt>
      <trkpt lat="45.4583" lon="5.35086">
        <ele>587.5</ele>
        <time>2011-12-11T09:31:37Z</time>
      </trkpt>
      <trkpt lat="45.45816" lon="5.3507">
        <ele>587</ele>
        <time>2011-12-11T09:31:43Z</time>
      </trkpt>
      <trkpt lat="45.4581" lon="5.35063">
        <ele>587.1</ele>
        <time>2011-12-11T09:31:45Z</time>
      </trkpt>
      <trkpt lat="45.45802" lon="5.35053">
        <ele>586.2</ele>
        <time>2011-12-11T09:31:48Z</time>
      </trkpt>
      <trkpt lat="45.45791" lon="5.35042">
        <ele>585.9</ele>
        <time>2011-12-11T09:31:53Z</time>
      </trkpt>
      <trkpt lat="45.45779" lon="5.35033">
        <ele>585.7</ele>
        <time>2011-12-11T09:31:58Z</time>
      </trkpt>
      <trkpt lat="45.45772" lon="5.35029">
        <ele>585.3</ele>
        <time>2011-12-11T09:32:01Z</time>
      </trkpt>
      <trkpt lat="45.45765" lon="5.35024">
        <ele>583.9</ele>
        <time>2011-12-11T09:32:05Z</time>
      </trkpt>
      <trkpt lat="45.45751" lon="5.35018">
        <ele>585.7</ele>
        <time>2011-12-11T09:32:11Z</time>
      </trkpt>
      <trkpt lat="45.45737" lon="5.35009">
        <ele>586.6</ele>
        <time>2011-12-11T09:32:18Z</time>
      </trkpt>
      <trkpt lat="45.45715" lon="5.35">
        <ele>583.7</ele>
        <time>2011-12-11T09:32:27Z</time>
      </trkpt>
      <trkpt lat="45.45709" lon="5.34997">
        <ele>584</ele>
        <time>2011-12-11T09:32:29Z</time>
      </trkpt>
      <trkpt lat="45.45693" lon="5.34992">
        <ele>584.5</ele>
        <time>2011-12-11T09:32:35Z</time>
      </trkpt>
      <trkpt lat="45.45686" lon="5.3499">
        <ele>585.4</ele>
        <time>2011-12-11T09:32:38Z</time>
      </trkpt>
      <trkpt lat="45.45669" lon="5.34981">
        <ele>585.5</ele>
        <time>2011-12-11T09:32:45Z</time>
      </trkpt>
      <trkpt lat="45.45654" lon="5.34968">
        <ele>585.6</ele>
        <time>2011-12-11T09:32:51Z</time>
      </trkpt>
      <trkpt lat="45.45642" lon="5.34958">
        <ele>586.8</ele>
        <time>2011-12-11T09:32:57Z</time>
      </trkpt>
      <trkpt lat="45.45631" lon="5.34946">
        <ele>587.7</ele>
        <time>2011-12-11T09:33:03Z</time>
      </trkpt>
      <trkpt lat="45.4562" lon="5.34932">
        <ele>585.4</ele>
        <time>2011-12-11T09:33:10Z</time>
      </trkpt>
      <trkpt lat="45.45602" lon="5.34915">
        <ele>587.2</ele>
        <time>2011-12-11T09:33:19Z</time>
      </trkpt>
      <trkpt lat="45.45597" lon="5.34903">
        <ele>586.9</ele>
        <time>2011-12-11T09:33:22Z</time>
      </trkpt>
      <trkpt lat="45.45587" lon="5.34882">
        <ele>586.6</ele>
        <time>2011-12-11T09:33:25Z</time>
      </trkpt>
      <trkpt lat="45.45575" lon="5.34871">
        <ele>590.5</ele>
        <time>2011-12-11T09:33:33Z</time>
      </trkpt>
      <trkpt lat="45.45569" lon="5.34866">
        <ele>590.3</ele>
        <time>2011-12-11T09:33:36Z</time>
      </trkpt>
      <trkpt lat="45.45559" lon="5.3485">
        <ele>589.6</ele>
        <time>2011-12-11T09:33:43Z</time>
      </trkpt>
      <trkpt lat="45.45546" lon="5.34836">
        <ele>590.6</ele>
        <time>2011-12-11T09:33:51Z</time>
      </trkpt>
      <trkpt lat="45.45534" lon="5.3482">
        <ele>592.7</ele>
        <time>2011-12-11T09:33:58Z</time>
      </trkpt>
      <trkpt lat="45.45522" lon="5.34805">
        <ele>593.6</ele>
        <time>2011-12-11T09:34:03Z</time>
      </trkpt>
      <trkpt lat="45.45519" lon="5.34795">
        <ele>593.8</ele>
        <time>2011-12-11T09:34:06Z</time>
      </trkpt>
      <trkpt lat="45.45514" lon="5.34775">
        <ele>594.7</ele>
        <time>2011-12-11T09:34:11Z</time>
      </trkpt>
      <trkpt lat="45.45512" lon="5.34766">
        <ele>594.7</ele>
        <time>2011-12-11T09:34:13Z</time>
      </trkpt>
      <trkpt lat="45.45507" lon="5.34756">
        <ele>593.8</ele>
        <time>2011-12-11T09:34:17Z</time>
      </trkpt>
      <trkpt lat="45.45497" lon="5.34738">
        <ele>593.4</ele>
        <time>2011-12-11T09:34:22Z</time>
      </trkpt>
      <trkpt lat="45.45495" lon="5.34729">
        <ele>592.7</ele>
        <time>2011-12-11T09:34:25Z</time>
      </trkpt>
      <trkpt lat="45.4549" lon="5.34717">
        <ele>591.4</ele>
        <time>2011-12-11T09:34:30Z</time>
      </trkpt>
      <trkpt lat="45.45488" lon="5.34703">
        <ele>589.4</ele>
        <time>2011-12-11T09:34:34Z</time>
      </trkpt>
      <trkpt lat="45.45486" lon="5.34694">
        <ele>590.3</ele>
        <time>2011-12-11T09:34:37Z</time>
      </trkpt>
      <trkpt lat="45.45482" lon="5.34683">
        <ele>590.9</ele>
        <time>2011-12-11T09:34:41Z</time>
      </trkpt>
      <trkpt lat="45.45479" lon="5.34664">
        <ele>591.8</ele>
        <time>2011-12-11T09:34:47Z</time>
      </trkpt>
      <trkpt lat="45.45477" lon="5.34652">
        <ele>592.8</ele>
        <time>2011-12-11T09:34:51Z</time>
      </trkpt>
      <trkpt lat="45.45472" lon="5.34642">
        <ele>592.4</ele>
        <time>2011-12-11T09:34:55Z</time>
      </trkpt>
      <trkpt lat="45.45467" lon="5.34634">
        <ele>592.2</ele>
        <time>2011-12-11T09:34:59Z</time>
      </trkpt>
      <trkpt lat="45.45463" lon="5.34621">
        <ele>593.3</ele>
        <time>2011-12-11T09:35:02Z</time>
      </trkpt>
      <trkpt lat="45.4545" lon="5.34598">
        <ele>593.6</ele>
        <time>2011-12-11T09:35:10Z</time>
      </trkpt>
      <trkpt lat="45.45439" lon="5.34582">
        <ele>595.3</ele>
        <time>2011-12-11T09:35:15Z</time>
      </trkpt>
      <trkpt lat="45.45435" lon="5.34572">
        <ele>596.4</ele>
        <time>2011-12-11T09:35:18Z</time>
      </trkpt>
      <trkpt lat="45.45433" lon="5.34562">
        <ele>597.1</ele>
        <time>2011-12-11T09:35:22Z</time>
      </trkpt>
      <trkpt lat="45.45424" lon="5.34545">
        <ele>595.5</ele>
        <time>2011-12-11T09:35:28Z</time>
      </trkpt>
      <trkpt lat="45.45424" lon="5.34545">
        <ele>527.9</ele>
        <time>2011-12-11T09:35:39Z</time>
      </trkpt>
      <trkpt lat="45.45424" lon="5.34545">
        <ele>527.9</ele>
        <time>2011-12-11T09:35:41Z</time>
      </trkpt>
      <trkpt lat="45.45392" lon="5.34518">
        <ele>594.3</ele>
        <time>2011-12-11T09:35:45Z</time>
      </trkpt>
      <trkpt lat="45.45387" lon="5.3451">
        <ele>594.4</ele>
        <time>2011-12-11T09:35:48Z</time>
      </trkpt>
      <trkpt lat="45.45375" lon="5.34494">
        <ele>595.3</ele>
        <time>2011-12-11T09:35:53Z</time>
      </trkpt>
      <trkpt lat="45.45363" lon="5.34482">
        <ele>596</ele>
        <time>2011-12-11T09:35:57Z</time>
      </trkpt>
      <trkpt lat="45.45356" lon="5.34465">
        <ele>596.2</ele>
        <time>2011-12-11T09:36:06Z</time>
      </trkpt>
      <trkpt lat="45.4534" lon="5.34456">
        <ele>595.8</ele>
        <time>2011-12-11T09:36:12Z</time>
      </trkpt>
      <trkpt lat="45.45328" lon="5.34444">
        <ele>595.8</ele>
        <time>2011-12-11T09:36:21Z</time>
      </trkpt>
      <trkpt lat="45.45324" lon="5.34436">
        <ele>596.7</ele>
        <time>2011-12-11T09:36:25Z</time>
      </trkpt>
      <trkpt lat="45.45308" lon="5.34416">
        <ele>594.5</ele>
        <time>2011-12-11T09:36:32Z</time>
      </trkpt>
      <trkpt lat="45.45302" lon="5.34404">
        <ele>593.6</ele>
        <time>2011-12-11T09:36:35Z</time>
      </trkpt>
      <trkpt lat="45.45288" lon="5.34387">
        <ele>593.6</ele>
        <time>2011-12-11T09:36:40Z</time>
      </trkpt>
      <trkpt lat="45.45279" lon="5.34382">
        <ele>593.9</ele>
        <time>2011-12-11T09:36:43Z</time>
      </trkpt>
      <trkpt lat="45.45263" lon="5.34372">
        <ele>592.7</ele>
        <time>2011-12-11T09:36:49Z</time>
      </trkpt>
      <trkpt lat="45.45257" lon="5.34365">
        <ele>592.2</ele>
        <time>2011-12-11T09:36:52Z</time>
      </trkpt>
      <trkpt lat="45.45252" lon="5.34357">
        <ele>591.5</ele>
        <time>2011-12-11T09:36:55Z</time>
      </trkpt>
      <trkpt lat="45.45239" lon="5.34329">
        <ele>588</ele>
        <time>2011-12-11T09:37:04Z</time>
      </trkpt>
      <trkpt lat="45.45235" lon="5.34318">
        <ele>587.2</ele>
        <time>2011-12-11T09:37:07Z</time>
      </trkpt>
      <trkpt lat="45.45231" lon="5.34311">
        <ele>587.7</ele>
        <time>2011-12-11T09:37:10Z</time>
      </trkpt>
      <trkpt lat="45.45223" lon="5.34292">
        <ele>587.7</ele>
        <time>2011-12-11T09:37:17Z</time>
      </trkpt>
      <trkpt lat="45.45218" lon="5.34282">
        <ele>589.6</ele>
        <time>2011-12-11T09:37:20Z</time>
      </trkpt>
      <trkpt lat="45.45213" lon="5.34264">
        <ele>590</ele>
        <time>2011-12-11T09:37:25Z</time>
      </trkpt>
      <trkpt lat="45.4521" lon="5.34254">
        <ele>590</ele>
        <time>2011-12-11T09:37:29Z</time>
      </trkpt>
      <trkpt lat="45.45206" lon="5.34248">
        <ele>589.4</ele>
        <time>2011-12-11T09:37:31Z</time>
      </trkpt>
      <trkpt lat="45.45203" lon="5.34237">
        <ele>596</ele>
        <time>2011-12-11T09:37:37Z</time>
      </trkpt>
      <trkpt lat="45.45197" lon="5.34209">
        <ele>598</ele>
        <time>2011-12-11T09:37:47Z</time>
      </trkpt>
      <trkpt lat="45.45193" lon="5.3419">
        <ele>598.1</ele>
        <time>2011-12-11T09:37:56Z</time>
      </trkpt>
      <trkpt lat="45.4519" lon="5.34182">
        <ele>598.4</ele>
        <time>2011-12-11T09:37:58Z</time>
      </trkpt>
      <trkpt lat="45.45187" lon="5.34171">
        <ele>599.1</ele>
        <time>2011-12-11T09:38:03Z</time>
      </trkpt>
      <trkpt lat="45.45175" lon="5.34154">
        <ele>599.7</ele>
        <time>2011-12-11T09:38:08Z</time>
      </trkpt>
      <trkpt lat="45.4517" lon="5.34147">
        <ele>599.4</ele>
        <time>2011-12-11T09:38:10Z</time>
      </trkpt>
      <trkpt lat="45.45158" lon="5.34131">
        <ele>599.9</ele>
        <time>2011-12-11T09:38:16Z</time>
      </trkpt>
      <trkpt lat="45.45152" lon="5.34126">
        <ele>599.2</ele>
        <time>2011-12-11T09:38:20Z</time>
      </trkpt>
      <trkpt lat="45.45151" lon="5.34097">
        <ele>595.9</ele>
        <time>2011-12-11T09:38:29Z</time>
      </trkpt>
      <trkpt lat="45.45166" lon="5.34077">
        <ele>592.7</ele>
        <time>2011-12-11T09:38:36Z</time>
      </trkpt>
      <trkpt lat="45.45171" lon="5.34071">
        <ele>590.2</ele>
        <time>2011-12-11T09:38:39Z</time>
      </trkpt>
      <trkpt lat="45.45177" lon="5.34066">
        <ele>587</ele>
        <time>2011-12-11T09:38:43Z</time>
      </trkpt>
      <trkpt lat="45.4518" lon="5.34057">
        <ele>586.1</ele>
        <time>2011-12-11T09:38:46Z</time>
      </trkpt>
      <trkpt lat="45.45185" lon="5.34037">
        <ele>583.7</ele>
        <time>2011-12-11T09:38:52Z</time>
      </trkpt>
      <trkpt lat="45.45192" lon="5.34032">
        <ele>581.3</ele>
        <time>2011-12-11T09:38:56Z</time>
      </trkpt>
      <trkpt lat="45.45201" lon="5.34018">
        <ele>578.9</ele>
        <time>2011-12-11T09:39:01Z</time>
      </trkpt>
      <trkpt lat="45.45203" lon="5.34007">
        <ele>578.2</ele>
        <time>2011-12-11T09:39:04Z</time>
      </trkpt>
      <trkpt lat="45.45208" lon="5.33997">
        <ele>578</ele>
        <time>2011-12-11T09:39:07Z</time>
      </trkpt>
      <trkpt lat="45.45216" lon="5.33979">
        <ele>574.4</ele>
        <time>2011-12-11T09:39:13Z</time>
      </trkpt>
      <trkpt lat="45.45218" lon="5.3397">
        <ele>573.8</ele>
        <time>2011-12-11T09:39:16Z</time>
      </trkpt>
      <trkpt lat="45.45222" lon="5.33961">
        <ele>573.7</ele>
        <time>2011-12-11T09:39:19Z</time>
      </trkpt>
      <trkpt lat="45.45229" lon="5.33944">
        <ele>571.5</ele>
        <time>2011-12-11T09:39:24Z</time>
      </trkpt>
      <trkpt lat="45.45239" lon="5.33927">
        <ele>569.6</ele>
        <time>2011-12-11T09:39:29Z</time>
      </trkpt>
      <trkpt lat="45.45243" lon="5.33919">
        <ele>569.1</ele>
        <time>2011-12-11T09:39:32Z</time>
      </trkpt>
      <trkpt lat="45.45249" lon="5.33908">
        <ele>568</ele>
        <time>2011-12-11T09:39:35Z</time>
      </trkpt>
      <trkpt lat="45.45256" lon="5.33898">
        <ele>566.9</ele>
        <time>2011-12-11T09:39:38Z</time>
      </trkpt>
      <trkpt lat="45.45271" lon="5.33884">
        <ele>564.6</ele>
        <time>2011-12-11T09:39:45Z</time>
      </trkpt>
      <trkpt lat="45.45273" lon="5.33876">
        <ele>562.6</ele>
        <time>2011-12-11T09:39:48Z</time>
      </trkpt>
      <trkpt lat="45.45278" lon="5.3387">
        <ele>562.5</ele>
        <time>2011-12-11T09:39:51Z</time>
      </trkpt>
      <trkpt lat="45.4529" lon="5.33856">
        <ele>562.5</ele>
        <time>2011-12-11T09:39:57Z</time>
      </trkpt>
      <trkpt lat="45.45296" lon="5.33848">
        <ele>562.8</ele>
        <time>2011-12-11T09:40:00Z</time>
      </trkpt>
      <trkpt lat="45.45301" lon="5.33842">
        <ele>562.5</ele>
        <time>2011-12-11T09:40:03Z</time>
      </trkpt>
      <trkpt lat="45.45308" lon="5.33834">
        <ele>561.6</ele>
        <time>2011-12-11T09:40:06Z</time>
      </trkpt>
      <trkpt lat="45.45312" lon="5.33827">
        <ele>561.4</ele>
        <time>2011-12-11T09:40:10Z</time>
      </trkpt>
      <trkpt lat="45.45307" lon="5.33809">
        <ele>561.2</ele>
        <time>2011-12-11T09:40:17Z</time>
      </trkpt>
      <trkpt lat="45.45311" lon="5.33798">
        <ele>560.8</ele>
        <time>2011-12-11T09:40:25Z</time>
      </trkpt>
      <trkpt lat="45.45318" lon="5.33805">
        <ele>560.8</ele>
        <time>2011-12-11T09:40:30Z</time>
      </trkpt>
      <trkpt lat="45.4533" lon="5.33821">
        <ele>563.5</ele>
        <time>2011-12-11T09:40:37Z</time>
      </trkpt>
      <trkpt lat="45.45341" lon="5.33837">
        <ele>563.8</ele>
        <time>2011-12-11T09:40:44Z</time>
      </trkpt>
      <trkpt lat="45.45346" lon="5.33849">
        <ele>564.4</ele>
        <time>2011-12-11T09:40:47Z</time>
      </trkpt>
      <trkpt lat="45.45349" lon="5.33859">
        <ele>565.3</ele>
        <time>2011-12-11T09:40:50Z</time>
      </trkpt>
      <trkpt lat="45.45357" lon="5.33876">
        <ele>566.6</ele>
        <time>2011-12-11T09:41:00Z</time>
      </trkpt>
      <trkpt lat="45.45362" lon="5.33896">
        <ele>572.9</ele>
        <time>2011-12-11T09:41:04Z</time>
      </trkpt>
      <trkpt lat="45.45372" lon="5.33914">
        <ele>574.7</ele>
        <time>2011-12-11T09:41:09Z</time>
      </trkpt>
      <trkpt lat="45.45374" lon="5.33924">
        <ele>574.3</ele>
        <time>2011-12-11T09:41:12Z</time>
      </trkpt>
      <trkpt lat="45.45376" lon="5.33936">
        <ele>574.1</ele>
        <time>2011-12-11T09:41:15Z</time>
      </trkpt>
      <trkpt lat="45.45387" lon="5.33968">
        <ele>576</ele>
        <time>2011-12-11T09:41:25Z</time>
      </trkpt>
      <trkpt lat="45.45392" lon="5.33978">
        <ele>577.2</ele>
        <time>2011-12-11T09:41:28Z</time>
      </trkpt>
      <trkpt lat="45.45396" lon="5.33989">
        <ele>578.2</ele>
        <time>2011-12-11T09:41:32Z</time>
      </trkpt>
      <trkpt lat="45.45396" lon="5.33999">
        <ele>579.8</ele>
        <time>2011-12-11T09:41:36Z</time>
      </trkpt>
      <trkpt lat="45.45399" lon="5.34022">
        <ele>585.7</ele>
        <time>2011-12-11T09:41:41Z</time>
      </trkpt>
      <trkpt lat="45.45401" lon="5.34032">
        <ele>583.7</ele>
        <time>2011-12-11T09:41:45Z</time>
      </trkpt>
      <trkpt lat="45.45404" lon="5.34041">
        <ele>585.7</ele>
        <time>2011-12-11T09:41:49Z</time>
      </trkpt>
      <trkpt lat="45.45411" lon="5.34061">
        <ele>587.5</ele>
        <time>2011-12-11T09:41:57Z</time>
      </trkpt>
      <trkpt lat="45.45415" lon="5.34072">
        <ele>586.8</ele>
        <time>2011-12-11T09:42:00Z</time>
      </trkpt>
      <trkpt lat="45.45426" lon="5.341">
        <ele>589.6</ele>
        <time>2011-12-11T09:42:09Z</time>
      </trkpt>
      <trkpt lat="45.45432" lon="5.34108">
        <ele>590.3</ele>
        <time>2011-12-11T09:42:12Z</time>
      </trkpt>
      <trkpt lat="45.45446" lon="5.34108">
        <ele>588.1</ele>
        <time>2011-12-11T09:42:21Z</time>
      </trkpt>
      <trkpt lat="45.45447" lon="5.34098">
        <ele>587.3</ele>
        <time>2011-12-11T09:42:25Z</time>
      </trkpt>
      <trkpt lat="45.45443" lon="5.3408">
        <ele>586.6</ele>
        <time>2011-12-11T09:42:34Z</time>
      </trkpt>
      <trkpt lat="45.45443" lon="5.3408">
        <ele>542.8</ele>
        <time>2011-12-11T09:42:45Z</time>
      </trkpt>
      <trkpt lat="45.45443" lon="5.3408">
        <ele>542.8</ele>
        <time>2011-12-11T09:42:47Z</time>
      </trkpt>
      <trkpt lat="45.45431" lon="5.34053">
        <ele>587.7</ele>
        <time>2011-12-11T09:42:51Z</time>
      </trkpt>
      <trkpt lat="45.4543" lon="5.3403">
        <ele>589.3</ele>
        <time>2011-12-11T09:42:57Z</time>
      </trkpt>
      <trkpt lat="45.45428" lon="5.3402">
        <ele>590.7</ele>
        <time>2011-12-11T09:43:01Z</time>
      </trkpt>
      <trkpt lat="45.45421" lon="5.34002">
        <ele>590.7</ele>
        <time>2011-12-11T09:43:07Z</time>
      </trkpt>
      <trkpt lat="45.45418" lon="5.3399">
        <ele>589.7</ele>
        <time>2011-12-11T09:43:11Z</time>
      </trkpt>
      <trkpt lat="45.45414" lon="5.33969">
        <ele>589.4</ele>
        <time>2011-12-11T09:43:18Z</time>
      </trkpt>
      <trkpt lat="45.45407" lon="5.3395">
        <ele>590.4</ele>
        <time>2011-12-11T09:43:27Z</time>
      </trkpt>
      <trkpt lat="45.45402" lon="5.33939">
        <ele>590.3</ele>
        <time>2011-12-11T09:43:29Z</time>
      </trkpt>
      <trkpt lat="45.45397" lon="5.33919">
        <ele>589.7</ele>
        <time>2011-12-11T09:43:35Z</time>
      </trkpt>
      <trkpt lat="45.45394" lon="5.33911">
        <ele>589.6</ele>
        <time>2011-12-11T09:43:41Z</time>
      </trkpt>
      <trkpt lat="45.4539" lon="5.33902">
        <ele>589.9</ele>
        <time>2011-12-11T09:43:44Z</time>
      </trkpt>
      <trkpt lat="45.45387" lon="5.33884">
        <ele>589.9</ele>
        <time>2011-12-11T09:43:51Z</time>
      </trkpt>
      <trkpt lat="45.45371" lon="5.33858">
        <ele>590.8</ele>
        <time>2011-12-11T09:43:59Z</time>
      </trkpt>
      <trkpt lat="45.45367" lon="5.33849">
        <ele>591.5</ele>
        <time>2011-12-11T09:44:02Z</time>
      </trkpt>
      <trkpt lat="45.45362" lon="5.33838">
        <ele>593.3</ele>
        <time>2011-12-11T09:44:05Z</time>
      </trkpt>
      <trkpt lat="45.45353" lon="5.33818">
        <ele>595.6</ele>
        <time>2011-12-11T09:44:11Z</time>
      </trkpt>
      <trkpt lat="45.45351" lon="5.33809">
        <ele>595.3</ele>
        <time>2011-12-11T09:44:13Z</time>
      </trkpt>
      <trkpt lat="45.45345" lon="5.33788">
        <ele>594.8</ele>
        <time>2011-12-11T09:44:21Z</time>
      </trkpt>
      <trkpt lat="45.45338" lon="5.33769">
        <ele>595.7</ele>
        <time>2011-12-11T09:44:30Z</time>
      </trkpt>
      <trkpt lat="45.45329" lon="5.33747">
        <ele>596</ele>
        <time>2011-12-11T09:44:35Z</time>
      </trkpt>
      <trkpt lat="45.45325" lon="5.33738">
        <ele>595.4</ele>
        <time>2011-12-11T09:44:38Z</time>
      </trkpt>
      <trkpt lat="45.4532" lon="5.33732">
        <ele>595.6</ele>
        <time>2011-12-11T09:44:42Z</time>
      </trkpt>
      <trkpt lat="45.4532" lon="5.33732">
        <ele>541.8</ele>
        <time>2011-12-11T09:44:53Z</time>
      </trkpt>
      <trkpt lat="45.4532" lon="5.33732">
        <ele>541.8</ele>
        <time>2011-12-11T09:44:54Z</time>
      </trkpt>
      <trkpt lat="45.45288" lon="5.33698">
        <ele>598.2</ele>
        <time>2011-12-11T09:45:00Z</time>
      </trkpt>
      <trkpt lat="45.45284" lon="5.33689">
        <ele>599.7</ele>
        <time>2011-12-11T09:45:06Z</time>
      </trkpt>
      <trkpt lat="45.45287" lon="5.33679">
        <ele>596.9</ele>
        <time>2011-12-11T09:45:09Z</time>
      </trkpt>
      <trkpt lat="45.45287" lon="5.33679">
        <ele>542.1</ele>
        <time>2011-12-11T09:45:20Z</time>
      </trkpt>
      <trkpt lat="45.45287" lon="5.33679">
        <ele>542.1</ele>
        <time>2011-12-11T09:45:41Z</time>
      </trkpt>
      <trkpt lat="45.45309" lon="5.33678">
        <ele>597.6</ele>
        <time>2011-12-11T09:45:43Z</time>
      </trkpt>
      <trkpt lat="45.45316" lon="5.33676">
        <ele>597.4</ele>
        <time>2011-12-11T09:45:48Z</time>
      </trkpt>
      <trkpt lat="45.45316" lon="5.33676">
        <ele>547.7</ele>
        <time>2011-12-11T09:45:59Z</time>
      </trkpt>
      <trkpt lat="45.45316" lon="5.33676">
        <ele>547.7</ele>
        <time>2011-12-11T09:46:11Z</time>
      </trkpt>
      <trkpt lat="45.45339" lon="5.33675">
        <ele>596.9</ele>
        <time>2011-12-11T09:46:13Z</time>
      </trkpt>
      <trkpt lat="45.45356" lon="5.33684">
        <ele>598.4</ele>
        <time>2011-12-11T09:46:17Z</time>
      </trkpt>
      <trkpt lat="45.45363" lon="5.33684">
        <ele>600</ele>
        <time>2011-12-11T09:46:19Z</time>
      </trkpt>
      <trkpt lat="45.45375" lon="5.33696">
        <ele>602.2</ele>
        <time>2011-12-11T09:46:24Z</time>
      </trkpt>
      <trkpt lat="45.45375" lon="5.33696">
        <ele>564.3</ele>
        <time>2011-12-11T09:46:35Z</time>
      </trkpt>
      <trkpt lat="45.45375" lon="5.33696">
        <ele>564.3</ele>
        <time>2011-12-11T09:46:59Z</time>
      </trkpt>
      <trkpt lat="45.45391" lon="5.33699">
        <ele>603.1</ele>
        <time>2011-12-11T09:47:01Z</time>
      </trkpt>
      <trkpt lat="45.45411" lon="5.33713">
        <ele>608</ele>
        <time>2011-12-11T09:47:09Z</time>
      </trkpt>
      <trkpt lat="45.45418" lon="5.33713">
        <ele>607.6</ele>
        <time>2011-12-11T09:47:12Z</time>
      </trkpt>
      <trkpt lat="45.45426" lon="5.33713">
        <ele>606.1</ele>
        <time>2011-12-11T09:47:19Z</time>
      </trkpt>
      <trkpt lat="45.45432" lon="5.33718">
        <ele>606.6</ele>
        <time>2011-12-11T09:47:27Z</time>
      </trkpt>
      <trkpt lat="45.45432" lon="5.33718">
        <ele>576.6</ele>
        <time>2011-12-11T09:47:38Z</time>
      </trkpt>
      <trkpt lat="45.45432" lon="5.33718">
        <ele>576.6</ele>
        <time>2011-12-11T09:47:49Z</time>
      </trkpt>
      <trkpt lat="45.45451" lon="5.33725">
        <ele>606.7</ele>
        <time>2011-12-11T09:47:51Z</time>
      </trkpt>
      <trkpt lat="45.45458" lon="5.33728">
        <ele>606.2</ele>
        <time>2011-12-11T09:47:54Z</time>
      </trkpt>
      <trkpt lat="45.45466" lon="5.33731">
        <ele>608.3</ele>
        <time>2011-12-11T09:47:58Z</time>
      </trkpt>
      <trkpt lat="45.45466" lon="5.33731">
        <ele>582</ele>
        <time>2011-12-11T09:48:09Z</time>
      </trkpt>
      <trkpt lat="45.45466" lon="5.33731">
        <ele>582</ele>
        <time>2011-12-11T09:48:24Z</time>
      </trkpt>
      <trkpt lat="45.45491" lon="5.33738">
        <ele>609.8</ele>
        <time>2011-12-11T09:48:29Z</time>
      </trkpt>
      <trkpt lat="45.45504" lon="5.33743">
        <ele>609.4</ele>
        <time>2011-12-11T09:48:34Z</time>
      </trkpt>
      <trkpt lat="45.45512" lon="5.33747">
        <ele>612.2</ele>
        <time>2011-12-11T09:48:37Z</time>
      </trkpt>
      <trkpt lat="45.45519" lon="5.33752">
        <ele>616.1</ele>
        <time>2011-12-11T09:48:44Z</time>
      </trkpt>
      <trkpt lat="45.45524" lon="5.33759">
        <ele>621</ele>
        <time>2011-12-11T09:48:48Z</time>
      </trkpt>
      <trkpt lat="45.45531" lon="5.33768">
        <ele>627.1</ele>
        <time>2011-12-11T09:48:52Z</time>
      </trkpt>
      <trkpt lat="45.45537" lon="5.33772">
        <ele>630.4</ele>
        <time>2011-12-11T09:48:56Z</time>
      </trkpt>
      <trkpt lat="45.45543" lon="5.33778">
        <ele>631.4</ele>
        <time>2011-12-11T09:49:02Z</time>
      </trkpt>
      <trkpt lat="45.45551" lon="5.33781">
        <ele>637.9</ele>
        <time>2011-12-11T09:49:06Z</time>
      </trkpt>
      <trkpt lat="45.45556" lon="5.33788">
        <ele>643.6</ele>
        <time>2011-12-11T09:49:10Z</time>
      </trkpt>
      <trkpt lat="45.45563" lon="5.33794">
        <ele>645</ele>
        <time>2011-12-11T09:49:16Z</time>
      </trkpt>
      <trkpt lat="45.45569" lon="5.33797">
        <ele>640.1</ele>
        <time>2011-12-11T09:49:22Z</time>
      </trkpt>
      <trkpt lat="45.45573" lon="5.33804">
        <ele>643.3</ele>
        <time>2011-12-11T09:49:26Z</time>
      </trkpt>
      <trkpt lat="45.45577" lon="5.33812">
        <ele>646.2</ele>
        <time>2011-12-11T09:49:30Z</time>
      </trkpt>
      <trkpt lat="45.4559" lon="5.33822">
        <ele>648.4</ele>
        <time>2011-12-11T09:49:41Z</time>
      </trkpt>
      <trkpt lat="45.45605" lon="5.33832">
        <ele>651.8</ele>
        <time>2011-12-11T09:49:50Z</time>
      </trkpt>
      <trkpt lat="45.4561" lon="5.33839">
        <ele>651.7</ele>
        <time>2011-12-11T09:49:53Z</time>
      </trkpt>
      <trkpt lat="45.45617" lon="5.33846">
        <ele>652.4</ele>
        <time>2011-12-11T09:49:56Z</time>
      </trkpt>
      <trkpt lat="45.45624" lon="5.3385">
        <ele>652.2</ele>
        <time>2011-12-11T09:50:01Z</time>
      </trkpt>
      <trkpt lat="45.45631" lon="5.33852">
        <ele>653.5</ele>
        <time>2011-12-11T09:50:04Z</time>
      </trkpt>
      <trkpt lat="45.45639" lon="5.33856">
        <ele>654.8</ele>
        <time>2011-12-11T09:50:10Z</time>
      </trkpt>
      <trkpt lat="45.45651" lon="5.33863">
        <ele>660.3</ele>
        <time>2011-12-11T09:50:19Z</time>
      </trkpt>
      <trkpt lat="45.45656" lon="5.3387">
        <ele>658.1</ele>
        <time>2011-12-11T09:50:24Z</time>
      </trkpt>
      <trkpt lat="45.45663" lon="5.33871">
        <ele>658.9</ele>
        <time>2011-12-11T09:50:29Z</time>
      </trkpt>
      <trkpt lat="45.45674" lon="5.3389">
        <ele>660.1</ele>
        <time>2011-12-11T09:50:38Z</time>
      </trkpt>
      <trkpt lat="45.45681" lon="5.33893">
        <ele>659.7</ele>
        <time>2011-12-11T09:50:45Z</time>
      </trkpt>
      <trkpt lat="45.45696" lon="5.33911">
        <ele>665.9</ele>
        <time>2011-12-11T09:50:51Z</time>
      </trkpt>
      <trkpt lat="45.45701" lon="5.33919">
        <ele>668.3</ele>
        <time>2011-12-11T09:50:55Z</time>
      </trkpt>
      <trkpt lat="45.45705" lon="5.33931">
        <ele>668.5</ele>
        <time>2011-12-11T09:50:59Z</time>
      </trkpt>
      <trkpt lat="45.45717" lon="5.33953">
        <ele>668.8</ele>
        <time>2011-12-11T09:51:03Z</time>
      </trkpt>
      <trkpt lat="45.4571" lon="5.33951">
        <ele>665.7</ele>
        <time>2011-12-11T09:51:07Z</time>
      </trkpt>
      <trkpt lat="45.45716" lon="5.33959">
        <ele>666.5</ele>
        <time>2011-12-11T09:51:10Z</time>
      </trkpt>
      <trkpt lat="45.45716" lon="5.33959">
        <ele>620.5</ele>
        <time>2011-12-11T09:51:22Z</time>
      </trkpt>
      <trkpt lat="45.45716" lon="5.33959">
        <ele>620.5</ele>
        <time>2011-12-11T09:51:22Z</time>
      </trkpt>
      <trkpt lat="45.45716" lon="5.33959">
        <ele>620.5</ele>
        <time>2011-12-11T09:51:34Z</time>
      </trkpt>
      <trkpt lat="45.45716" lon="5.33959">
        <ele>620.5</ele>
        <time>2011-12-11T09:51:37Z</time>
      </trkpt>
      <trkpt lat="45.45754" lon="5.33985">
        <ele>675.4</ele>
        <time>2011-12-11T09:51:39Z</time>
      </trkpt>
      <trkpt lat="45.45763" lon="5.34">
        <ele>675.6</ele>
        <time>2011-12-11T09:51:44Z</time>
      </trkpt>
      <trkpt lat="45.45766" lon="5.34008">
        <ele>674.6</ele>
        <time>2011-12-11T09:51:48Z</time>
      </trkpt>
      <trkpt lat="45.4577" lon="5.34016">
        <ele>674.1</ele>
        <time>2011-12-11T09:51:51Z</time>
      </trkpt>
      <trkpt lat="45.45773" lon="5.34037">
        <ele>676.5</ele>
        <time>2011-12-11T09:51:58Z</time>
      </trkpt>
      <trkpt lat="45.45782" lon="5.34053">
        <ele>679.4</ele>
        <time>2011-12-11T09:52:04Z</time>
      </trkpt>
      <trkpt lat="45.45787" lon="5.3406">
        <ele>679.7</ele>
        <time>2011-12-11T09:52:07Z</time>
      </trkpt>
      <trkpt lat="45.45793" lon="5.34067">
        <ele>680.3</ele>
        <time>2011-12-11T09:52:10Z</time>
      </trkpt>
      <trkpt lat="45.45803" lon="5.3408">
        <ele>681.4</ele>
        <time>2011-12-11T09:52:17Z</time>
      </trkpt>
      <trkpt lat="45.45816" lon="5.34091">
        <ele>680.9</ele>
        <time>2011-12-11T09:52:26Z</time>
      </trkpt>
      <trkpt lat="45.45829" lon="5.34095">
        <ele>682.2</ele>
        <time>2011-12-11T09:52:35Z</time>
      </trkpt>
      <trkpt lat="45.45836" lon="5.341">
        <ele>682.5</ele>
        <time>2011-12-11T09:52:40Z</time>
      </trkpt>
      <trkpt lat="45.45855" lon="5.34101">
        <ele>682.7</ele>
        <time>2011-12-11T09:52:50Z</time>
      </trkpt>
      <trkpt lat="45.45863" lon="5.34105">
        <ele>682.6</ele>
        <time>2011-12-11T09:52:54Z</time>
      </trkpt>
      <trkpt lat="45.45863" lon="5.34105">
        <ele>626.1</ele>
        <time>2011-12-11T09:53:06Z</time>
      </trkpt>
      <trkpt lat="45.45863" lon="5.34105">
        <ele>626.1</ele>
        <time>2011-12-11T09:53:06Z</time>
      </trkpt>
      <trkpt lat="45.45882" lon="5.34129">
        <ele>682.7</ele>
        <time>2011-12-11T09:53:08Z</time>
      </trkpt>
      <trkpt lat="45.45897" lon="5.34147">
        <ele>684</ele>
        <time>2011-12-11T09:53:12Z</time>
      </trkpt>
      <trkpt lat="45.45904" lon="5.34154">
        <ele>682.9</ele>
        <time>2011-12-11T09:53:15Z</time>
      </trkpt>
      <trkpt lat="45.45911" lon="5.34162">
        <ele>684.7</ele>
        <time>2011-12-11T09:53:18Z</time>
      </trkpt>
      <trkpt lat="45.45916" lon="5.34168">
        <ele>684.3</ele>
        <time>2011-12-11T09:53:22Z</time>
      </trkpt>
      <trkpt lat="45.4593" lon="5.34188">
        <ele>685.2</ele>
        <time>2011-12-11T09:53:26Z</time>
      </trkpt>
      <trkpt lat="45.45943" lon="5.34203">
        <ele>685.3</ele>
        <time>2011-12-11T09:53:35Z</time>
      </trkpt>
      <trkpt lat="45.45957" lon="5.34199">
        <ele>683.8</ele>
        <time>2011-12-11T09:53:44Z</time>
      </trkpt>
      <trkpt lat="45.4597" lon="5.34205">
        <ele>685.1</ele>
        <time>2011-12-11T09:53:57Z</time>
      </trkpt>
      <trkpt lat="45.45978" lon="5.34208">
        <ele>684.9</ele>
        <time>2011-12-11T09:54:00Z</time>
      </trkpt>
      <trkpt lat="45.45985" lon="5.3421">
        <ele>685.7</ele>
        <time>2011-12-11T09:54:03Z</time>
      </trkpt>
      <trkpt lat="45.45998" lon="5.34226">
        <ele>684.6</ele>
        <time>2011-12-11T09:54:10Z</time>
      </trkpt>
      <trkpt lat="45.46011" lon="5.34235">
        <ele>684.3</ele>
        <time>2011-12-11T09:54:16Z</time>
      </trkpt>
      <trkpt lat="45.4602" lon="5.3424">
        <ele>685.3</ele>
        <time>2011-12-11T09:54:20Z</time>
      </trkpt>
      <trkpt lat="45.46026" lon="5.34243">
        <ele>685.2</ele>
        <time>2011-12-11T09:54:29Z</time>
      </trkpt>
      <trkpt lat="45.4604" lon="5.3425">
        <ele>686.3</ele>
        <time>2011-12-11T09:54:37Z</time>
      </trkpt>
      <trkpt lat="45.46052" lon="5.34258">
        <ele>685</ele>
        <time>2011-12-11T09:54:41Z</time>
      </trkpt>
      <trkpt lat="45.46065" lon="5.34271">
        <ele>685.4</ele>
        <time>2011-12-11T09:54:45Z</time>
      </trkpt>
      <trkpt lat="45.46077" lon="5.34283">
        <ele>685.3</ele>
        <time>2011-12-11T09:54:49Z</time>
      </trkpt>
      <trkpt lat="45.46083" lon="5.34289">
        <ele>686.7</ele>
        <time>2011-12-11T09:54:51Z</time>
      </trkpt>
      <trkpt lat="45.46096" lon="5.34299">
        <ele>686.3</ele>
        <time>2011-12-11T09:54:56Z</time>
      </trkpt>
      <trkpt lat="45.46108" lon="5.34315">
        <ele>686.7</ele>
        <time>2011-12-11T09:55:04Z</time>
      </trkpt>
      <trkpt lat="45.46113" lon="5.34323">
        <ele>687.6</ele>
        <time>2011-12-11T09:55:08Z</time>
      </trkpt>
      <trkpt lat="45.4612" lon="5.34344">
        <ele>690.4</ele>
        <time>2011-12-11T09:55:16Z</time>
      </trkpt>
      <trkpt lat="45.46128" lon="5.3435">
        <ele>689</ele>
        <time>2011-12-11T09:55:20Z</time>
      </trkpt>
      <trkpt lat="45.46131" lon="5.3436">
        <ele>690.2</ele>
        <time>2011-12-11T09:55:23Z</time>
      </trkpt>
      <trkpt lat="45.46138" lon="5.34364">
        <ele>691.1</ele>
        <time>2011-12-11T09:55:26Z</time>
      </trkpt>
      <trkpt lat="45.46149" lon="5.34377">
        <ele>691.5</ele>
        <time>2011-12-11T09:55:32Z</time>
      </trkpt>
      <trkpt lat="45.46153" lon="5.34384">
        <ele>692.6</ele>
        <time>2011-12-11T09:55:36Z</time>
      </trkpt>
      <trkpt lat="45.46165" lon="5.34396">
        <ele>693.8</ele>
        <time>2011-12-11T09:55:45Z</time>
      </trkpt>
      <trkpt lat="45.46172" lon="5.34401">
        <ele>694.1</ele>
        <time>2011-12-11T09:55:47Z</time>
      </trkpt>
      <trkpt lat="45.46183" lon="5.34412">
        <ele>694</ele>
        <time>2011-12-11T09:55:53Z</time>
      </trkpt>
      <trkpt lat="45.46189" lon="5.3442">
        <ele>694.2</ele>
        <time>2011-12-11T09:55:57Z</time>
      </trkpt>
      <trkpt lat="45.46212" lon="5.34442">
        <ele>698.4</ele>
        <time>2011-12-11T09:56:05Z</time>
      </trkpt>
      <trkpt lat="45.46221" lon="5.34446">
        <ele>699.3</ele>
        <time>2011-12-11T09:56:08Z</time>
      </trkpt>
      <trkpt lat="45.46227" lon="5.34447">
        <ele>701.5</ele>
        <time>2011-12-11T09:56:11Z</time>
      </trkpt>
      <trkpt lat="45.46234" lon="5.34449">
        <ele>700.7</ele>
        <time>2011-12-11T09:56:15Z</time>
      </trkpt>
      <trkpt lat="45.46249" lon="5.34446">
        <ele>699.5</ele>
        <time>2011-12-11T09:56:21Z</time>
      </trkpt>
      <trkpt lat="45.46256" lon="5.34443">
        <ele>699.1</ele>
        <time>2011-12-11T09:56:25Z</time>
      </trkpt>
      <trkpt lat="45.4627" lon="5.34442">
        <ele>701.5</ele>
        <time>2011-12-11T09:56:35Z</time>
      </trkpt>
      <trkpt lat="45.46283" lon="5.34449">
        <ele>702.2</ele>
        <time>2011-12-11T09:56:41Z</time>
      </trkpt>
      <trkpt lat="45.46291" lon="5.34453">
        <ele>703</ele>
        <time>2011-12-11T09:56:44Z</time>
      </trkpt>
      <trkpt lat="45.46303" lon="5.34455">
        <ele>702</ele>
        <time>2011-12-11T09:56:48Z</time>
      </trkpt>
      <trkpt lat="45.46311" lon="5.3446">
        <ele>702.2</ele>
        <time>2011-12-11T09:56:51Z</time>
      </trkpt>
      <trkpt lat="45.46325" lon="5.34457">
        <ele>700.8</ele>
        <time>2011-12-11T09:57:01Z</time>
      </trkpt>
      <trkpt lat="45.46333" lon="5.34456">
        <ele>700.6</ele>
        <time>2011-12-11T09:57:03Z</time>
      </trkpt>
      <trkpt lat="45.46352" lon="5.34455">
        <ele>700.1</ele>
        <time>2011-12-11T09:57:09Z</time>
      </trkpt>
      <trkpt lat="45.4636" lon="5.34462">
        <ele>699.4</ele>
        <time>2011-12-11T09:57:13Z</time>
      </trkpt>
      <trkpt lat="45.46368" lon="5.34466">
        <ele>699.7</ele>
        <time>2011-12-11T09:57:15Z</time>
      </trkpt>
      <trkpt lat="45.46381" lon="5.3446">
        <ele>701</ele>
        <time>2011-12-11T09:57:21Z</time>
      </trkpt>
      <trkpt lat="45.46388" lon="5.34459">
        <ele>700.7</ele>
        <time>2011-12-11T09:57:24Z</time>
      </trkpt>
      <trkpt lat="45.46404" lon="5.34463">
        <ele>700.3</ele>
        <time>2011-12-11T09:57:33Z</time>
      </trkpt>
      <trkpt lat="45.46404" lon="5.34463">
        <ele>641.2</ele>
        <time>2011-12-11T09:57:45Z</time>
      </trkpt>
      <trkpt lat="45.46404" lon="5.34463">
        <ele>641.2</ele>
        <time>2011-12-11T09:57:53Z</time>
      </trkpt>
      <trkpt lat="45.46431" lon="5.34463">
        <ele>699.7</ele>
        <time>2011-12-11T09:57:54Z</time>
      </trkpt>
      <trkpt lat="45.46442" lon="5.34463">
        <ele>700.3</ele>
        <time>2011-12-11T09:57:56Z</time>
      </trkpt>
      <trkpt lat="45.46469" lon="5.34467">
        <ele>698.9</ele>
        <time>2011-12-11T09:58:02Z</time>
      </trkpt>
      <trkpt lat="45.46483" lon="5.3447">
        <ele>699.2</ele>
        <time>2011-12-11T09:58:06Z</time>
      </trkpt>
      <trkpt lat="45.4649" lon="5.34474">
        <ele>699.6</ele>
        <time>2011-12-11T09:58:14Z</time>
      </trkpt>
      <trkpt lat="45.46496" lon="5.34475">
        <ele>700.2</ele>
        <time>2011-12-11T09:58:17Z</time>
      </trkpt>
      <trkpt lat="45.46515" lon="5.34471">
        <ele>700.9</ele>
        <time>2011-12-11T09:58:21Z</time>
      </trkpt>
      <trkpt lat="45.46537" lon="5.34483">
        <ele>700.2</ele>
        <time>2011-12-11T09:58:26Z</time>
      </trkpt>
      <trkpt lat="45.46551" lon="5.34484">
        <ele>700.3</ele>
        <time>2011-12-11T09:58:32Z</time>
      </trkpt>
      <trkpt lat="45.46558" lon="5.3448">
        <ele>702.2</ele>
        <time>2011-12-11T09:58:36Z</time>
      </trkpt>
      <trkpt lat="45.46564" lon="5.34481">
        <ele>700.7</ele>
        <time>2011-12-11T09:58:43Z</time>
      </trkpt>
      <trkpt lat="45.46571" lon="5.3448">
        <ele>700</ele>
        <time>2011-12-11T09:58:47Z</time>
      </trkpt>
      <trkpt lat="45.46595" lon="5.34486">
        <ele>696.4</ele>
        <time>2011-12-11T09:58:54Z</time>
      </trkpt>
      <trkpt lat="45.46609" lon="5.34489">
        <ele>692.9</ele>
        <time>2011-12-11T09:58:57Z</time>
      </trkpt>
      <trkpt lat="45.46616" lon="5.34489">
        <ele>691.6</ele>
        <time>2011-12-11T09:59:00Z</time>
      </trkpt>
      <trkpt lat="45.46623" lon="5.34494">
        <ele>689.2</ele>
        <time>2011-12-11T09:59:04Z</time>
      </trkpt>
      <trkpt lat="45.46636" lon="5.34497">
        <ele>691.8</ele>
        <time>2011-12-11T09:59:12Z</time>
      </trkpt>
      <trkpt lat="45.46643" lon="5.34501">
        <ele>692.6</ele>
        <time>2011-12-11T09:59:16Z</time>
      </trkpt>
      <trkpt lat="45.46658" lon="5.34516">
        <ele>694.9</ele>
        <time>2011-12-11T09:59:21Z</time>
      </trkpt>
      <trkpt lat="45.46671" lon="5.34527">
        <ele>696.3</ele>
        <time>2011-12-11T09:59:26Z</time>
      </trkpt>
      <trkpt lat="45.46683" lon="5.3454">
        <ele>697</ele>
        <time>2011-12-11T09:59:32Z</time>
      </trkpt>
      <trkpt lat="45.46688" lon="5.34546">
        <ele>697</ele>
        <time>2011-12-11T09:59:35Z</time>
      </trkpt>
      <trkpt lat="45.46697" lon="5.3455">
        <ele>685</ele>
        <time>2011-12-11T09:59:39Z</time>
      </trkpt>
      <trkpt lat="45.46708" lon="5.34564">
        <ele>682.4</ele>
        <time>2011-12-11T09:59:46Z</time>
      </trkpt>
      <trkpt lat="45.46708" lon="5.34564">
        <ele>636.6</ele>
        <time>2011-12-11T09:59:58Z</time>
      </trkpt>
      <trkpt lat="45.46708" lon="5.34564">
        <ele>636.6</ele>
        <time>2011-12-11T09:59:58Z</time>
      </trkpt>
      <trkpt lat="45.4673" lon="5.34599">
        <ele>685.6</ele>
        <time>2011-12-11T10:00:03Z</time>
      </trkpt>
      <trkpt lat="45.46734" lon="5.34608">
        <ele>687.1</ele>
        <time>2011-12-11T10:00:06Z</time>
      </trkpt>
      <trkpt lat="45.46739" lon="5.34618">
        <ele>687</ele>
        <time>2011-12-11T10:00:09Z</time>
      </trkpt>
      <trkpt lat="45.46745" lon="5.34625">
        <ele>686.7</ele>
        <time>2011-12-11T10:00:13Z</time>
      </trkpt>
      <trkpt lat="45.46751" lon="5.34645">
        <ele>684.8</ele>
        <time>2011-12-11T10:00:18Z</time>
      </trkpt>
      <trkpt lat="45.46756" lon="5.34665">
        <ele>683.6</ele>
        <time>2011-12-11T10:00:23Z</time>
      </trkpt>
      <trkpt lat="45.46758" lon="5.34677">
        <ele>685</ele>
        <time>2011-12-11T10:00:25Z</time>
      </trkpt>
      <trkpt lat="45.46766" lon="5.34705">
        <ele>683.5</ele>
        <time>2011-12-11T10:00:34Z</time>
      </trkpt>
      <trkpt lat="45.46771" lon="5.34713">
        <ele>682.3</ele>
        <time>2011-12-11T10:00:37Z</time>
      </trkpt>
      <trkpt lat="45.46779" lon="5.34732">
        <ele>684</ele>
        <time>2011-12-11T10:00:43Z</time>
      </trkpt>
      <trkpt lat="45.46782" lon="5.34744">
        <ele>683.5</ele>
        <time>2011-12-11T10:00:46Z</time>
      </trkpt>
      <trkpt lat="45.46783" lon="5.34755">
        <ele>684.1</ele>
        <time>2011-12-11T10:00:49Z</time>
      </trkpt>
      <trkpt lat="45.46786" lon="5.34765">
        <ele>684.7</ele>
        <time>2011-12-11T10:00:52Z</time>
      </trkpt>
      <trkpt lat="45.46793" lon="5.34782">
        <ele>685.3</ele>
        <time>2011-12-11T10:00:58Z</time>
      </trkpt>
      <trkpt lat="45.46799" lon="5.34789">
        <ele>681.7</ele>
        <time>2011-12-11T10:01:01Z</time>
      </trkpt>
      <trkpt lat="45.46804" lon="5.34797">
        <ele>679.4</ele>
        <time>2011-12-11T10:01:05Z</time>
      </trkpt>
      <trkpt lat="45.46816" lon="5.34824">
        <ele>670</ele>
        <time>2011-12-11T10:01:15Z</time>
      </trkpt>
      <trkpt lat="45.46818" lon="5.34833">
        <ele>671.8</ele>
        <time>2011-12-11T10:01:18Z</time>
      </trkpt>
      <trkpt lat="45.46819" lon="5.34843">
        <ele>670.8</ele>
        <time>2011-12-11T10:01:21Z</time>
      </trkpt>
      <trkpt lat="45.46824" lon="5.34853">
        <ele>670.5</ele>
        <time>2011-12-11T10:01:24Z</time>
      </trkpt>
      <trkpt lat="45.46832" lon="5.3487">
        <ele>670.5</ele>
        <time>2011-12-11T10:01:30Z</time>
      </trkpt>
      <trkpt lat="45.46837" lon="5.34879">
        <ele>671.5</ele>
        <time>2011-12-11T10:01:33Z</time>
      </trkpt>
      <trkpt lat="45.46846" lon="5.34894">
        <ele>671</ele>
        <time>2011-12-11T10:01:38Z</time>
      </trkpt>
      <trkpt lat="45.46861" lon="5.34907">
        <ele>665.6</ele>
        <time>2011-12-11T10:01:44Z</time>
      </trkpt>
      <trkpt lat="45.46868" lon="5.34911">
        <ele>664.6</ele>
        <time>2011-12-11T10:01:47Z</time>
      </trkpt>
      <trkpt lat="45.46874" lon="5.34918">
        <ele>665.2</ele>
        <time>2011-12-11T10:01:50Z</time>
      </trkpt>
      <trkpt lat="45.46881" lon="5.34924">
        <ele>667</ele>
        <time>2011-12-11T10:01:53Z</time>
      </trkpt>
      <trkpt lat="45.46907" lon="5.34932">
        <ele>666.4</ele>
        <time>2011-12-11T10:02:07Z</time>
      </trkpt>
      <trkpt lat="45.46915" lon="5.34929">
        <ele>666.9</ele>
        <time>2011-12-11T10:02:10Z</time>
      </trkpt>
      <trkpt lat="45.46924" lon="5.34928">
        <ele>666.8</ele>
        <time>2011-12-11T10:02:13Z</time>
      </trkpt>
      <trkpt lat="45.46938" lon="5.34924">
        <ele>667.6</ele>
        <time>2011-12-11T10:02:19Z</time>
      </trkpt>
      <trkpt lat="45.46945" lon="5.34919">
        <ele>667.9</ele>
        <time>2011-12-11T10:02:22Z</time>
      </trkpt>
      <trkpt lat="45.46951" lon="5.34916">
        <ele>668.4</ele>
        <time>2011-12-11T10:02:25Z</time>
      </trkpt>
      <trkpt lat="45.46968" lon="5.34923">
        <ele>668</ele>
        <time>2011-12-11T10:02:31Z</time>
      </trkpt>
      <trkpt lat="45.46977" lon="5.34925">
        <ele>667.3</ele>
        <time>2011-12-11T10:02:34Z</time>
      </trkpt>
      <trkpt lat="45.46998" lon="5.3493">
        <ele>665.4</ele>
        <time>2011-12-11T10:02:43Z</time>
      </trkpt>
      <trkpt lat="45.47005" lon="5.34929">
        <ele>664.9</ele>
        <time>2011-12-11T10:02:45Z</time>
      </trkpt>
      <trkpt lat="45.47014" lon="5.3493">
        <ele>664.6</ele>
        <time>2011-12-11T10:02:48Z</time>
      </trkpt>
      <trkpt lat="45.47029" lon="5.34924">
        <ele>664.5</ele>
        <time>2011-12-11T10:02:55Z</time>
      </trkpt>
      <trkpt lat="45.47037" lon="5.34926">
        <ele>663.4</ele>
        <time>2011-12-11T10:02:58Z</time>
      </trkpt>
      <trkpt lat="45.4705" lon="5.34922">
        <ele>668.5</ele>
        <time>2011-12-11T10:03:03Z</time>
      </trkpt>
      <trkpt lat="45.47057" lon="5.34919">
        <ele>670.7</ele>
        <time>2011-12-11T10:03:06Z</time>
      </trkpt>
      <trkpt lat="45.47065" lon="5.34917">
        <ele>670.6</ele>
        <time>2011-12-11T10:03:09Z</time>
      </trkpt>
      <trkpt lat="45.47078" lon="5.34906">
        <ele>670.9</ele>
        <time>2011-12-11T10:03:15Z</time>
      </trkpt>
      <trkpt lat="45.47089" lon="5.34893">
        <ele>665.3</ele>
        <time>2011-12-11T10:03:22Z</time>
      </trkpt>
      <trkpt lat="45.47096" lon="5.34898">
        <ele>666.5</ele>
        <time>2011-12-11T10:03:30Z</time>
      </trkpt>
      <trkpt lat="45.47109" lon="5.34892">
        <ele>664.5</ele>
        <time>2011-12-11T10:03:35Z</time>
      </trkpt>
      <trkpt lat="45.47113" lon="5.3487">
        <ele>662.3</ele>
        <time>2011-12-11T10:03:41Z</time>
      </trkpt>
      <trkpt lat="45.47124" lon="5.34854">
        <ele>660.9</ele>
        <time>2011-12-11T10:03:49Z</time>
      </trkpt>
      <trkpt lat="45.47129" lon="5.34848">
        <ele>660.6</ele>
        <time>2011-12-11T10:03:52Z</time>
      </trkpt>
      <trkpt lat="45.47137" lon="5.34832">
        <ele>662</ele>
        <time>2011-12-11T10:03:59Z</time>
      </trkpt>
      <trkpt lat="45.47144" lon="5.34828">
        <ele>663.3</ele>
        <time>2011-12-11T10:04:02Z</time>
      </trkpt>
      <trkpt lat="45.4715" lon="5.3482">
        <ele>663.6</ele>
        <time>2011-12-11T10:04:05Z</time>
      </trkpt>
      <trkpt lat="45.47164" lon="5.34814">
        <ele>667.2</ele>
        <time>2011-12-11T10:04:10Z</time>
      </trkpt>
      <trkpt lat="45.4717" lon="5.34813">
        <ele>664.7</ele>
        <time>2011-12-11T10:04:13Z</time>
      </trkpt>
      <trkpt lat="45.47177" lon="5.34809">
        <ele>665.5</ele>
        <time>2011-12-11T10:04:16Z</time>
      </trkpt>
      <trkpt lat="45.47185" lon="5.34804">
        <ele>664.1</ele>
        <time>2011-12-11T10:04:20Z</time>
      </trkpt>
      <trkpt lat="45.47202" lon="5.34804">
        <ele>663.3</ele>
        <time>2011-12-11T10:04:28Z</time>
      </trkpt>
      <trkpt lat="45.47224" lon="5.34804">
        <ele>662.6</ele>
        <time>2011-12-11T10:04:35Z</time>
      </trkpt>
      <trkpt lat="45.47232" lon="5.34806">
        <ele>662.5</ele>
        <time>2011-12-11T10:04:37Z</time>
      </trkpt>
      <trkpt lat="45.47247" lon="5.34799">
        <ele>663.1</ele>
        <time>2011-12-11T10:04:43Z</time>
      </trkpt>
      <trkpt lat="45.47259" lon="5.3479">
        <ele>664.7</ele>
        <time>2011-12-11T10:04:48Z</time>
      </trkpt>
      <trkpt lat="45.47274" lon="5.34785">
        <ele>663.8</ele>
        <time>2011-12-11T10:04:54Z</time>
      </trkpt>
      <trkpt lat="45.47288" lon="5.34777">
        <ele>661.9</ele>
        <time>2011-12-11T10:04:59Z</time>
      </trkpt>
      <trkpt lat="45.47294" lon="5.34768">
        <ele>661.9</ele>
        <time>2011-12-11T10:05:03Z</time>
      </trkpt>
      <trkpt lat="45.47299" lon="5.34758">
        <ele>662.8</ele>
        <time>2011-12-11T10:05:06Z</time>
      </trkpt>
      <trkpt lat="45.47307" lon="5.34754">
        <ele>662.2</ele>
        <time>2011-12-11T10:05:09Z</time>
      </trkpt>
      <trkpt lat="45.47312" lon="5.34745">
        <ele>662.7</ele>
        <time>2011-12-11T10:05:12Z</time>
      </trkpt>
      <trkpt lat="45.47319" lon="5.34741">
        <ele>663.2</ele>
        <time>2011-12-11T10:05:16Z</time>
      </trkpt>
      <trkpt lat="45.47331" lon="5.34731">
        <ele>663</ele>
        <time>2011-12-11T10:05:22Z</time>
      </trkpt>
      <trkpt lat="45.47334" lon="5.34723">
        <ele>662.9</ele>
        <time>2011-12-11T10:05:24Z</time>
      </trkpt>
      <trkpt lat="45.47345" lon="5.34712">
        <ele>661.9</ele>
        <time>2011-12-11T10:05:30Z</time>
      </trkpt>
      <trkpt lat="45.47355" lon="5.34696">
        <ele>660.3</ele>
        <time>2011-12-11T10:05:36Z</time>
      </trkpt>
      <trkpt lat="45.4736" lon="5.34689">
        <ele>659.6</ele>
        <time>2011-12-11T10:05:40Z</time>
      </trkpt>
      <trkpt lat="45.47366" lon="5.34681">
        <ele>660.1</ele>
        <time>2011-12-11T10:05:44Z</time>
      </trkpt>
      <trkpt lat="45.47371" lon="5.34672">
        <ele>659.5</ele>
        <time>2011-12-11T10:05:48Z</time>
      </trkpt>
      <trkpt lat="45.47378" lon="5.34655">
        <ele>658.8</ele>
        <time>2011-12-11T10:05:54Z</time>
      </trkpt>
      <trkpt lat="45.47378" lon="5.34634">
        <ele>659.4</ele>
        <time>2011-12-11T10:05:59Z</time>
      </trkpt>
      <trkpt lat="45.47382" lon="5.34628">
        <ele>659.9</ele>
        <time>2011-12-11T10:06:02Z</time>
      </trkpt>
      <trkpt lat="45.47387" lon="5.34621">
        <ele>660.8</ele>
        <time>2011-12-11T10:06:05Z</time>
      </trkpt>
      <trkpt lat="45.47395" lon="5.34607">
        <ele>662.3</ele>
        <time>2011-12-11T10:06:10Z</time>
      </trkpt>
      <trkpt lat="45.47399" lon="5.34597">
        <ele>663.1</ele>
        <time>2011-12-11T10:06:13Z</time>
      </trkpt>
      <trkpt lat="45.47413" lon="5.34585">
        <ele>661.5</ele>
        <time>2011-12-11T10:06:19Z</time>
      </trkpt>
      <trkpt lat="45.47416" lon="5.34574">
        <ele>661.8</ele>
        <time>2011-12-11T10:06:22Z</time>
      </trkpt>
      <trkpt lat="45.47422" lon="5.34568">
        <ele>662.1</ele>
        <time>2011-12-11T10:06:25Z</time>
      </trkpt>
      <trkpt lat="45.47425" lon="5.34559">
        <ele>662.4</ele>
        <time>2011-12-11T10:06:28Z</time>
      </trkpt>
      <trkpt lat="45.47434" lon="5.34542">
        <ele>663.5</ele>
        <time>2011-12-11T10:06:35Z</time>
      </trkpt>
      <trkpt lat="45.47439" lon="5.34533">
        <ele>664.3</ele>
        <time>2011-12-11T10:06:38Z</time>
      </trkpt>
      <trkpt lat="45.47453" lon="5.34507">
        <ele>663.9</ele>
        <time>2011-12-11T10:06:47Z</time>
      </trkpt>
      <trkpt lat="45.47463" lon="5.34493">
        <ele>663.9</ele>
        <time>2011-12-11T10:06:54Z</time>
      </trkpt>
      <trkpt lat="45.47468" lon="5.34486">
        <ele>664.7</ele>
        <time>2011-12-11T10:06:57Z</time>
      </trkpt>
      <trkpt lat="45.47479" lon="5.34471">
        <ele>665.1</ele>
        <time>2011-12-11T10:07:03Z</time>
      </trkpt>
      <trkpt lat="45.47488" lon="5.34466">
        <ele>665.1</ele>
        <time>2011-12-11T10:07:06Z</time>
      </trkpt>
      <trkpt lat="45.47493" lon="5.34459">
        <ele>664.5</ele>
        <time>2011-12-11T10:07:09Z</time>
      </trkpt>
      <trkpt lat="45.47504" lon="5.34445">
        <ele>663.9</ele>
        <time>2011-12-11T10:07:15Z</time>
      </trkpt>
      <trkpt lat="45.47511" lon="5.34437">
        <ele>663.1</ele>
        <time>2011-12-11T10:07:19Z</time>
      </trkpt>
      <trkpt lat="45.47519" lon="5.34432">
        <ele>663.5</ele>
        <time>2011-12-11T10:07:22Z</time>
      </trkpt>
      <trkpt lat="45.4753" lon="5.34418">
        <ele>662.9</ele>
        <time>2011-12-11T10:07:27Z</time>
      </trkpt>
      <trkpt lat="45.47537" lon="5.3441">
        <ele>663.1</ele>
        <time>2011-12-11T10:07:30Z</time>
      </trkpt>
      <trkpt lat="45.47538" lon="5.34399">
        <ele>663.3</ele>
        <time>2011-12-11T10:07:33Z</time>
      </trkpt>
      <trkpt lat="45.47543" lon="5.3439">
        <ele>663.1</ele>
        <time>2011-12-11T10:07:36Z</time>
      </trkpt>
      <trkpt lat="45.47553" lon="5.34374">
        <ele>660.9</ele>
        <time>2011-12-11T10:07:42Z</time>
      </trkpt>
      <trkpt lat="45.47557" lon="5.34363">
        <ele>661.8</ele>
        <time>2011-12-11T10:07:45Z</time>
      </trkpt>
      <trkpt lat="45.47567" lon="5.34334">
        <ele>661.6</ele>
        <time>2011-12-11T10:07:54Z</time>
      </trkpt>
      <trkpt lat="45.4757" lon="5.34321">
        <ele>662.3</ele>
        <time>2011-12-11T10:07:57Z</time>
      </trkpt>
      <trkpt lat="45.47577" lon="5.34304">
        <ele>661.4</ele>
        <time>2011-12-11T10:08:03Z</time>
      </trkpt>
      <trkpt lat="45.47579" lon="5.34295">
        <ele>661.6</ele>
        <time>2011-12-11T10:08:06Z</time>
      </trkpt>
      <trkpt lat="45.47583" lon="5.34276">
        <ele>662.7</ele>
        <time>2011-12-11T10:08:11Z</time>
      </trkpt>
      <trkpt lat="45.47583" lon="5.34266">
        <ele>662.1</ele>
        <time>2011-12-11T10:08:13Z</time>
      </trkpt>
      <trkpt lat="45.47593" lon="5.34248">
        <ele>661.2</ele>
        <time>2011-12-11T10:08:19Z</time>
      </trkpt>
      <trkpt lat="45.47597" lon="5.34237">
        <ele>662.2</ele>
        <time>2011-12-11T10:08:22Z</time>
      </trkpt>
      <trkpt lat="45.47599" lon="5.34227">
        <ele>660.6</ele>
        <time>2011-12-11T10:08:25Z</time>
      </trkpt>
      <trkpt lat="45.47605" lon="5.34208">
        <ele>660.9</ele>
        <time>2011-12-11T10:08:31Z</time>
      </trkpt>
      <trkpt lat="45.4761" lon="5.34198">
        <ele>660.1</ele>
        <time>2011-12-11T10:08:34Z</time>
      </trkpt>
      <trkpt lat="45.47617" lon="5.34191">
        <ele>661.2</ele>
        <time>2011-12-11T10:08:37Z</time>
      </trkpt>
      <trkpt lat="45.4762" lon="5.34181">
        <ele>661.1</ele>
        <time>2011-12-11T10:08:40Z</time>
      </trkpt>
      <trkpt lat="45.47632" lon="5.34167">
        <ele>660.3</ele>
        <time>2011-12-11T10:08:46Z</time>
      </trkpt>
      <trkpt lat="45.47639" lon="5.34162">
        <ele>659.6</ele>
        <time>2011-12-11T10:08:49Z</time>
      </trkpt>
      <trkpt lat="45.47643" lon="5.34157">
        <ele>659.6</ele>
        <time>2011-12-11T10:08:52Z</time>
      </trkpt>
      <trkpt lat="45.47656" lon="5.34149">
        <ele>658.9</ele>
        <time>2011-12-11T10:08:58Z</time>
      </trkpt>
      <trkpt lat="45.47663" lon="5.34141">
        <ele>660.5</ele>
        <time>2011-12-11T10:09:01Z</time>
      </trkpt>
      <trkpt lat="45.47671" lon="5.34125">
        <ele>661.3</ele>
        <time>2011-12-11T10:09:07Z</time>
      </trkpt>
      <trkpt lat="45.47674" lon="5.34112">
        <ele>662</ele>
        <time>2011-12-11T10:09:10Z</time>
      </trkpt>
      <trkpt lat="45.47684" lon="5.34094">
        <ele>662.1</ele>
        <time>2011-12-11T10:09:15Z</time>
      </trkpt>
      <trkpt lat="45.47691" lon="5.34091">
        <ele>662.6</ele>
        <time>2011-12-11T10:09:18Z</time>
      </trkpt>
      <trkpt lat="45.47698" lon="5.34086">
        <ele>661.9</ele>
        <time>2011-12-11T10:09:21Z</time>
      </trkpt>
      <trkpt lat="45.47708" lon="5.34073">
        <ele>662.8</ele>
        <time>2011-12-11T10:09:27Z</time>
      </trkpt>
      <trkpt lat="45.47714" lon="5.34065">
        <ele>663.7</ele>
        <time>2011-12-11T10:09:31Z</time>
      </trkpt>
      <trkpt lat="45.47726" lon="5.34052">
        <ele>664.3</ele>
        <time>2011-12-11T10:09:38Z</time>
      </trkpt>
      <trkpt lat="45.47733" lon="5.34049">
        <ele>664.7</ele>
        <time>2011-12-11T10:09:41Z</time>
      </trkpt>
      <trkpt lat="45.47747" lon="5.3404">
        <ele>664.6</ele>
        <time>2011-12-11T10:09:47Z</time>
      </trkpt>
      <trkpt lat="45.47764" lon="5.34035">
        <ele>664.1</ele>
        <time>2011-12-11T10:09:54Z</time>
      </trkpt>
      <trkpt lat="45.47768" lon="5.34028">
        <ele>664</ele>
        <time>2011-12-11T10:09:57Z</time>
      </trkpt>
      <trkpt lat="45.47778" lon="5.34015">
        <ele>662.5</ele>
        <time>2011-12-11T10:10:03Z</time>
      </trkpt>
      <trkpt lat="45.47783" lon="5.34011">
        <ele>662.7</ele>
        <time>2011-12-11T10:10:05Z</time>
      </trkpt>
      <trkpt lat="45.47798" lon="5.34009">
        <ele>666</ele>
        <time>2011-12-11T10:10:10Z</time>
      </trkpt>
      <trkpt lat="45.47805" lon="5.34005">
        <ele>666.9</ele>
        <time>2011-12-11T10:10:13Z</time>
      </trkpt>
      <trkpt lat="45.4782" lon="5.34001">
        <ele>666.8</ele>
        <time>2011-12-11T10:10:19Z</time>
      </trkpt>
      <trkpt lat="45.47832" lon="5.33987">
        <ele>666.6</ele>
        <time>2011-12-11T10:10:26Z</time>
      </trkpt>
      <trkpt lat="45.47846" lon="5.33988">
        <ele>666.1</ele>
        <time>2011-12-11T10:10:31Z</time>
      </trkpt>
      <trkpt lat="45.47864" lon="5.33987">
        <ele>665.3</ele>
        <time>2011-12-11T10:10:37Z</time>
      </trkpt>
      <trkpt lat="45.47878" lon="5.33983">
        <ele>664.8</ele>
        <time>2011-12-11T10:10:42Z</time>
      </trkpt>
      <trkpt lat="45.47885" lon="5.3398">
        <ele>665.8</ele>
        <time>2011-12-11T10:10:46Z</time>
      </trkpt>
      <trkpt lat="45.47899" lon="5.33977">
        <ele>661.7</ele>
        <time>2011-12-11T10:10:51Z</time>
      </trkpt>
      <trkpt lat="45.47915" lon="5.33977">
        <ele>664.3</ele>
        <time>2011-12-11T10:10:58Z</time>
      </trkpt>
      <trkpt lat="45.47922" lon="5.3398">
        <ele>663.6</ele>
        <time>2011-12-11T10:11:02Z</time>
      </trkpt>
      <trkpt lat="45.47944" lon="5.33984">
        <ele>666.3</ele>
        <time>2011-12-11T10:11:15Z</time>
      </trkpt>
      <trkpt lat="45.47951" lon="5.3399">
        <ele>667.2</ele>
        <time>2011-12-11T10:11:17Z</time>
      </trkpt>
      <trkpt lat="45.47964" lon="5.34">
        <ele>667.1</ele>
        <time>2011-12-11T10:11:22Z</time>
      </trkpt>
      <trkpt lat="45.47971" lon="5.34001">
        <ele>668.8</ele>
        <time>2011-12-11T10:11:31Z</time>
      </trkpt>
      <trkpt lat="45.47977" lon="5.34004">
        <ele>668.8</ele>
        <time>2011-12-11T10:11:34Z</time>
      </trkpt>
      <trkpt lat="45.47984" lon="5.34009">
        <ele>667.8</ele>
        <time>2011-12-11T10:11:36Z</time>
      </trkpt>
      <trkpt lat="45.47997" lon="5.34021">
        <ele>669.5</ele>
        <time>2011-12-11T10:11:41Z</time>
      </trkpt>
      <trkpt lat="45.48002" lon="5.34029">
        <ele>670.1</ele>
        <time>2011-12-11T10:11:44Z</time>
      </trkpt>
      <trkpt lat="45.48023" lon="5.34042">
        <ele>670</ele>
        <time>2011-12-11T10:11:55Z</time>
      </trkpt>
      <trkpt lat="45.48037" lon="5.34058">
        <ele>670.5</ele>
        <time>2011-12-11T10:11:59Z</time>
      </trkpt>
      <trkpt lat="45.48052" lon="5.34065">
        <ele>675.3</ele>
        <time>2011-12-11T10:12:03Z</time>
      </trkpt>
      <trkpt lat="45.4806" lon="5.3407">
        <ele>677.6</ele>
        <time>2011-12-11T10:12:06Z</time>
      </trkpt>
      <trkpt lat="45.48066" lon="5.34075">
        <ele>677.6</ele>
        <time>2011-12-11T10:12:09Z</time>
      </trkpt>
      <trkpt lat="45.48074" lon="5.34079">
        <ele>676.8</ele>
        <time>2011-12-11T10:12:14Z</time>
      </trkpt>
      <trkpt lat="45.48089" lon="5.34077">
        <ele>676.2</ele>
        <time>2011-12-11T10:12:22Z</time>
      </trkpt>
      <trkpt lat="45.48113" lon="5.34078">
        <ele>675.7</ele>
        <time>2011-12-11T10:12:33Z</time>
      </trkpt>
      <trkpt lat="45.48128" lon="5.34077">
        <ele>677.9</ele>
        <time>2011-12-11T10:12:39Z</time>
      </trkpt>
      <trkpt lat="45.48134" lon="5.34077">
        <ele>679</ele>
        <time>2011-12-11T10:12:42Z</time>
      </trkpt>
      <trkpt lat="45.48143" lon="5.34079">
        <ele>678.8</ele>
        <time>2011-12-11T10:12:45Z</time>
      </trkpt>
      <trkpt lat="45.48156" lon="5.34079">
        <ele>681.6</ele>
        <time>2011-12-11T10:12:50Z</time>
      </trkpt>
      <trkpt lat="45.48164" lon="5.34081">
        <ele>683.2</ele>
        <time>2011-12-11T10:12:53Z</time>
      </trkpt>
      <trkpt lat="45.4817" lon="5.34083">
        <ele>681.5</ele>
        <time>2011-12-11T10:12:56Z</time>
      </trkpt>
      <trkpt lat="45.48186" lon="5.34083">
        <ele>679.7</ele>
        <time>2011-12-11T10:13:03Z</time>
      </trkpt>
      <trkpt lat="45.48192" lon="5.34086">
        <ele>680.7</ele>
        <time>2011-12-11T10:13:07Z</time>
      </trkpt>
      <trkpt lat="45.482" lon="5.34091">
        <ele>680.3</ele>
        <time>2011-12-11T10:13:11Z</time>
      </trkpt>
      <trkpt lat="45.48214" lon="5.34101">
        <ele>680.1</ele>
        <time>2011-12-11T10:13:17Z</time>
      </trkpt>
      <trkpt lat="45.4822" lon="5.3411">
        <ele>680</ele>
        <time>2011-12-11T10:13:21Z</time>
      </trkpt>
      <trkpt lat="45.48225" lon="5.34129">
        <ele>679.3</ele>
        <time>2011-12-11T10:13:29Z</time>
      </trkpt>
      <trkpt lat="45.48226" lon="5.34138">
        <ele>679.5</ele>
        <time>2011-12-11T10:13:33Z</time>
      </trkpt>
      <trkpt lat="45.48232" lon="5.34147">
        <ele>681.2</ele>
        <time>2011-12-11T10:13:38Z</time>
      </trkpt>
      <trkpt lat="45.48236" lon="5.34155">
        <ele>682.1</ele>
        <time>2011-12-11T10:13:42Z</time>
      </trkpt>
      <trkpt lat="45.48247" lon="5.34175">
        <ele>683.5</ele>
        <time>2011-12-11T10:13:49Z</time>
      </trkpt>
      <trkpt lat="45.48251" lon="5.34185">
        <ele>684</ele>
        <time>2011-12-11T10:13:52Z</time>
      </trkpt>
      <trkpt lat="45.48256" lon="5.34195">
        <ele>684.1</ele>
        <time>2011-12-11T10:13:56Z</time>
      </trkpt>
      <trkpt lat="45.48261" lon="5.34213">
        <ele>683.6</ele>
        <time>2011-12-11T10:14:03Z</time>
      </trkpt>
      <trkpt lat="45.48266" lon="5.34231">
        <ele>684.3</ele>
        <time>2011-12-11T10:14:10Z</time>
      </trkpt>
      <trkpt lat="45.4827" lon="5.34237">
        <ele>685.6</ele>
        <time>2011-12-11T10:14:13Z</time>
      </trkpt>
      <trkpt lat="45.48273" lon="5.34246">
        <ele>686</ele>
        <time>2011-12-11T10:14:16Z</time>
      </trkpt>
      <trkpt lat="45.48282" lon="5.34262">
        <ele>685.3</ele>
        <time>2011-12-11T10:14:23Z</time>
      </trkpt>
      <trkpt lat="45.48286" lon="5.34271">
        <ele>688</ele>
        <time>2011-12-11T10:14:29Z</time>
      </trkpt>
      <trkpt lat="45.4829" lon="5.34278">
        <ele>690.2</ele>
        <time>2011-12-11T10:14:34Z</time>
      </trkpt>
      <trkpt lat="45.48295" lon="5.34284">
        <ele>690.9</ele>
        <time>2011-12-11T10:14:38Z</time>
      </trkpt>
      <trkpt lat="45.48303" lon="5.34288">
        <ele>690.1</ele>
        <time>2011-12-11T10:14:41Z</time>
      </trkpt>
      <trkpt lat="45.48311" lon="5.34295">
        <ele>690.3</ele>
        <time>2011-12-11T10:14:46Z</time>
      </trkpt>
      <trkpt lat="45.4832" lon="5.3431">
        <ele>689.5</ele>
        <time>2011-12-11T10:14:51Z</time>
      </trkpt>
      <trkpt lat="45.48326" lon="5.34315">
        <ele>689.5</ele>
        <time>2011-12-11T10:14:56Z</time>
      </trkpt>
      <trkpt lat="45.48338" lon="5.34325">
        <ele>691.9</ele>
        <time>2011-12-11T10:15:03Z</time>
      </trkpt>
      <trkpt lat="45.48345" lon="5.34328">
        <ele>693.6</ele>
        <time>2011-12-11T10:15:06Z</time>
      </trkpt>
      <trkpt lat="45.48351" lon="5.34333">
        <ele>692.2</ele>
        <time>2011-12-11T10:15:09Z</time>
      </trkpt>
      <trkpt lat="45.48366" lon="5.34344">
        <ele>693.1</ele>
        <time>2011-12-11T10:15:14Z</time>
      </trkpt>
      <trkpt lat="45.48377" lon="5.34368">
        <ele>694.2</ele>
        <time>2011-12-11T10:15:23Z</time>
      </trkpt>
      <trkpt lat="45.48381" lon="5.34376">
        <ele>693.8</ele>
        <time>2011-12-11T10:15:27Z</time>
      </trkpt>
      <trkpt lat="45.48385" lon="5.34397">
        <ele>693.2</ele>
        <time>2011-12-11T10:15:34Z</time>
      </trkpt>
      <trkpt lat="45.48389" lon="5.34404">
        <ele>693.1</ele>
        <time>2011-12-11T10:15:37Z</time>
      </trkpt>
      <trkpt lat="45.48391" lon="5.34414">
        <ele>695</ele>
        <time>2011-12-11T10:15:40Z</time>
      </trkpt>
      <trkpt lat="45.48394" lon="5.34423">
        <ele>696.2</ele>
        <time>2011-12-11T10:15:44Z</time>
      </trkpt>
      <trkpt lat="45.48397" lon="5.34432">
        <ele>696</ele>
        <time>2011-12-11T10:15:49Z</time>
      </trkpt>
      <trkpt lat="45.48402" lon="5.34441">
        <ele>697.1</ele>
        <time>2011-12-11T10:15:53Z</time>
      </trkpt>
      <trkpt lat="45.48406" lon="5.34449">
        <ele>697.8</ele>
        <time>2011-12-11T10:15:56Z</time>
      </trkpt>
      <trkpt lat="45.48412" lon="5.34467">
        <ele>699.1</ele>
        <time>2011-12-11T10:16:06Z</time>
      </trkpt>
      <trkpt lat="45.48414" lon="5.34477">
        <ele>699.7</ele>
        <time>2011-12-11T10:16:09Z</time>
      </trkpt>
      <trkpt lat="45.48411" lon="5.34497">
        <ele>701.2</ele>
        <time>2011-12-11T10:16:15Z</time>
      </trkpt>
      <trkpt lat="45.48409" lon="5.34508">
        <ele>702.6</ele>
        <time>2011-12-11T10:16:18Z</time>
      </trkpt>
      <trkpt lat="45.48403" lon="5.34527">
        <ele>703.2</ele>
        <time>2011-12-11T10:16:23Z</time>
      </trkpt>
      <trkpt lat="45.48397" lon="5.34534">
        <ele>702.6</ele>
        <time>2011-12-11T10:16:28Z</time>
      </trkpt>
      <trkpt lat="45.48395" lon="5.34555">
        <ele>704.1</ele>
        <time>2011-12-11T10:16:35Z</time>
      </trkpt>
      <trkpt lat="45.4839" lon="5.34573">
        <ele>706.6</ele>
        <time>2011-12-11T10:16:42Z</time>
      </trkpt>
      <trkpt lat="45.48388" lon="5.34592">
        <ele>702.1</ele>
        <time>2011-12-11T10:16:49Z</time>
      </trkpt>
      <trkpt lat="45.48389" lon="5.34603">
        <ele>699.4</ele>
        <time>2011-12-11T10:16:53Z</time>
      </trkpt>
      <trkpt lat="45.48392" lon="5.34623">
        <ele>702.3</ele>
        <time>2011-12-11T10:16:59Z</time>
      </trkpt>
      <trkpt lat="45.48392" lon="5.34635">
        <ele>703.8</ele>
        <time>2011-12-11T10:17:02Z</time>
      </trkpt>
      <trkpt lat="45.48397" lon="5.34643">
        <ele>704.6</ele>
        <time>2011-12-11T10:17:05Z</time>
      </trkpt>
      <trkpt lat="45.48409" lon="5.34658">
        <ele>705.2</ele>
        <time>2011-12-11T10:17:12Z</time>
      </trkpt>
      <trkpt lat="45.48415" lon="5.34666">
        <ele>706.8</ele>
        <time>2011-12-11T10:17:16Z</time>
      </trkpt>
      <trkpt lat="45.48424" lon="5.34682">
        <ele>706.6</ele>
        <time>2011-12-11T10:17:23Z</time>
      </trkpt>
      <trkpt lat="45.48432" lon="5.347">
        <ele>707.3</ele>
        <time>2011-12-11T10:17:29Z</time>
      </trkpt>
      <trkpt lat="45.48435" lon="5.34718">
        <ele>706.2</ele>
        <time>2011-12-11T10:17:35Z</time>
      </trkpt>
      <trkpt lat="45.48438" lon="5.34727">
        <ele>706.9</ele>
        <time>2011-12-11T10:17:38Z</time>
      </trkpt>
      <trkpt lat="45.4844" lon="5.34739">
        <ele>708.5</ele>
        <time>2011-12-11T10:17:42Z</time>
      </trkpt>
      <trkpt lat="45.48442" lon="5.34749">
        <ele>709.3</ele>
        <time>2011-12-11T10:17:46Z</time>
      </trkpt>
      <trkpt lat="45.48444" lon="5.34758">
        <ele>708.4</ele>
        <time>2011-12-11T10:17:49Z</time>
      </trkpt>
      <trkpt lat="45.48442" lon="5.34779">
        <ele>709.9</ele>
        <time>2011-12-11T10:17:57Z</time>
      </trkpt>
      <trkpt lat="45.48436" lon="5.34777">
        <ele>709.6</ele>
        <time>2011-12-11T10:18:02Z</time>
      </trkpt>
      <trkpt lat="45.48426" lon="5.34768">
        <ele>706.2</ele>
        <time>2011-12-11T10:18:06Z</time>
      </trkpt>
      <trkpt lat="45.4842" lon="5.34764">
        <ele>704.8</ele>
        <time>2011-12-11T10:18:08Z</time>
      </trkpt>
      <trkpt lat="45.48415" lon="5.34758">
        <ele>698.1</ele>
        <time>2011-12-11T10:18:12Z</time>
      </trkpt>
      <trkpt lat="45.484" lon="5.34757">
        <ele>696</ele>
        <time>2011-12-11T10:18:18Z</time>
      </trkpt>
      <trkpt lat="45.48374" lon="5.34748">
        <ele>698</ele>
        <time>2011-12-11T10:18:26Z</time>
      </trkpt>
      <trkpt lat="45.48353" lon="5.34736">
        <ele>699.3</ele>
        <time>2011-12-11T10:18:35Z</time>
      </trkpt>
      <trkpt lat="45.48347" lon="5.34731">
        <ele>699.6</ele>
        <time>2011-12-11T10:18:38Z</time>
      </trkpt>
      <trkpt lat="45.48339" lon="5.34727">
        <ele>700.7</ele>
        <time>2011-12-11T10:18:41Z</time>
      </trkpt>
      <trkpt lat="45.48325" lon="5.3472">
        <ele>700.7</ele>
        <time>2011-12-11T10:18:47Z</time>
      </trkpt>
      <trkpt lat="45.48317" lon="5.34717">
        <ele>701.6</ele>
        <time>2011-12-11T10:18:49Z</time>
      </trkpt>
      <trkpt lat="45.48304" lon="5.34715">
        <ele>701.2</ele>
        <time>2011-12-11T10:18:54Z</time>
      </trkpt>
      <trkpt lat="45.48296" lon="5.34715">
        <ele>702.3</ele>
        <time>2011-12-11T10:18:57Z</time>
      </trkpt>
      <trkpt lat="45.48282" lon="5.34712">
        <ele>705.3</ele>
        <time>2011-12-11T10:19:03Z</time>
      </trkpt>
      <trkpt lat="45.48275" lon="5.34714">
        <ele>704.3</ele>
        <time>2011-12-11T10:19:06Z</time>
      </trkpt>
      <trkpt lat="45.48266" lon="5.34716">
        <ele>704.2</ele>
        <time>2011-12-11T10:19:09Z</time>
      </trkpt>
      <trkpt lat="45.48259" lon="5.34722">
        <ele>702.6</ele>
        <time>2011-12-11T10:19:13Z</time>
      </trkpt>
      <trkpt lat="45.4825" lon="5.34738">
        <ele>703.3</ele>
        <time>2011-12-11T10:19:19Z</time>
      </trkpt>
      <trkpt lat="45.48245" lon="5.34747">
        <ele>703.2</ele>
        <time>2011-12-11T10:19:23Z</time>
      </trkpt>
      <trkpt lat="45.48242" lon="5.34755">
        <ele>703.6</ele>
        <time>2011-12-11T10:19:26Z</time>
      </trkpt>
      <trkpt lat="45.48242" lon="5.34765">
        <ele>697.6</ele>
        <time>2011-12-11T10:19:29Z</time>
      </trkpt>
      <trkpt lat="45.48242" lon="5.34776">
        <ele>697.9</ele>
        <time>2011-12-11T10:19:33Z</time>
      </trkpt>
      <trkpt lat="45.48242" lon="5.34776">
        <ele>648.3</ele>
        <time>2011-12-11T10:19:44Z</time>
      </trkpt>
      <trkpt lat="45.48242" lon="5.34776">
        <ele>648.3</ele>
        <time>2011-12-11T10:19:50Z</time>
      </trkpt>
      <trkpt lat="45.48239" lon="5.34823">
        <ele>692.6</ele>
        <time>2011-12-11T10:19:52Z</time>
      </trkpt>
      <trkpt lat="45.48239" lon="5.34834">
        <ele>682.4</ele>
        <time>2011-12-11T10:19:56Z</time>
      </trkpt>
      <trkpt lat="45.4825" lon="5.34861">
        <ele>678.8</ele>
        <time>2011-12-11T10:20:04Z</time>
      </trkpt>
      <trkpt lat="45.48251" lon="5.34874">
        <ele>679.2</ele>
        <time>2011-12-11T10:20:07Z</time>
      </trkpt>
      <trkpt lat="45.4825" lon="5.34885">
        <ele>678.8</ele>
        <time>2011-12-11T10:20:10Z</time>
      </trkpt>
      <trkpt lat="45.48246" lon="5.34923">
        <ele>683.4</ele>
        <time>2011-12-11T10:20:17Z</time>
      </trkpt>
      <trkpt lat="45.48244" lon="5.34934">
        <ele>683.9</ele>
        <time>2011-12-11T10:20:20Z</time>
      </trkpt>
      <trkpt lat="45.48238" lon="5.34954">
        <ele>684.7</ele>
        <time>2011-12-11T10:20:24Z</time>
      </trkpt>
      <trkpt lat="45.48233" lon="5.34962">
        <ele>679.9</ele>
        <time>2011-12-11T10:20:27Z</time>
      </trkpt>
      <trkpt lat="45.48228" lon="5.34985">
        <ele>679</ele>
        <time>2011-12-11T10:20:33Z</time>
      </trkpt>
      <trkpt lat="45.48224" lon="5.34997">
        <ele>681.7</ele>
        <time>2011-12-11T10:20:36Z</time>
      </trkpt>
      <trkpt lat="45.48219" lon="5.35006">
        <ele>682.1</ele>
        <time>2011-12-11T10:20:40Z</time>
      </trkpt>
      <trkpt lat="45.48206" lon="5.35015">
        <ele>682.9</ele>
        <time>2011-12-11T10:20:48Z</time>
      </trkpt>
      <trkpt lat="45.48198" lon="5.35017">
        <ele>682.7</ele>
        <time>2011-12-11T10:20:52Z</time>
      </trkpt>
      <trkpt lat="45.4819" lon="5.35024">
        <ele>683.2</ele>
        <time>2011-12-11T10:20:55Z</time>
      </trkpt>
      <trkpt lat="45.48176" lon="5.35046">
        <ele>684.2</ele>
        <time>2011-12-11T10:21:04Z</time>
      </trkpt>
      <trkpt lat="45.48173" lon="5.35056">
        <ele>684.7</ele>
        <time>2011-12-11T10:21:07Z</time>
      </trkpt>
      <trkpt lat="45.48167" lon="5.35073">
        <ele>684.8</ele>
        <time>2011-12-11T10:21:13Z</time>
      </trkpt>
      <trkpt lat="45.48162" lon="5.35083">
        <ele>684.3</ele>
        <time>2011-12-11T10:21:16Z</time>
      </trkpt>
      <trkpt lat="45.48154" lon="5.351">
        <ele>684.1</ele>
        <time>2011-12-11T10:21:21Z</time>
      </trkpt>
      <trkpt lat="45.48148" lon="5.35106">
        <ele>685.3</ele>
        <time>2011-12-11T10:21:25Z</time>
      </trkpt>
      <trkpt lat="45.48127" lon="5.35118">
        <ele>687.3</ele>
        <time>2011-12-11T10:21:37Z</time>
      </trkpt>
      <trkpt lat="45.48118" lon="5.35131">
        <ele>687.9</ele>
        <time>2011-12-11T10:21:43Z</time>
      </trkpt>
      <trkpt lat="45.48114" lon="5.35139">
        <ele>690.6</ele>
        <time>2011-12-11T10:21:47Z</time>
      </trkpt>
      <trkpt lat="45.48109" lon="5.35144">
        <ele>695.3</ele>
        <time>2011-12-11T10:21:50Z</time>
      </trkpt>
      <trkpt lat="45.48102" lon="5.35148">
        <ele>695.8</ele>
        <time>2011-12-11T10:21:54Z</time>
      </trkpt>
      <trkpt lat="45.48094" lon="5.35163">
        <ele>697.7</ele>
        <time>2011-12-11T10:22:01Z</time>
      </trkpt>
      <trkpt lat="45.4809" lon="5.3517">
        <ele>697.2</ele>
        <time>2011-12-11T10:22:03Z</time>
      </trkpt>
      <trkpt lat="45.48081" lon="5.35185">
        <ele>697.1</ele>
        <time>2011-12-11T10:22:09Z</time>
      </trkpt>
      <trkpt lat="45.48076" lon="5.35192">
        <ele>696.9</ele>
        <time>2011-12-11T10:22:12Z</time>
      </trkpt>
      <trkpt lat="45.48071" lon="5.35201">
        <ele>698.7</ele>
        <time>2011-12-11T10:22:16Z</time>
      </trkpt>
      <trkpt lat="45.48069" lon="5.3521">
        <ele>699.5</ele>
        <time>2011-12-11T10:22:20Z</time>
      </trkpt>
      <trkpt lat="45.48065" lon="5.35217">
        <ele>700.7</ele>
        <time>2011-12-11T10:22:23Z</time>
      </trkpt>
      <trkpt lat="45.48065" lon="5.35228">
        <ele>703.7</ele>
        <time>2011-12-11T10:22:26Z</time>
      </trkpt>
      <trkpt lat="45.48065" lon="5.35238">
        <ele>699.4</ele>
        <time>2011-12-11T10:22:30Z</time>
      </trkpt>
      <trkpt lat="45.48061" lon="5.35259">
        <ele>698.4</ele>
        <time>2011-12-11T10:22:40Z</time>
      </trkpt>
      <trkpt lat="45.48064" lon="5.35282">
        <ele>698.3</ele>
        <time>2011-12-11T10:22:45Z</time>
      </trkpt>
      <trkpt lat="45.48067" lon="5.35292">
        <ele>699.5</ele>
        <time>2011-12-11T10:22:47Z</time>
      </trkpt>
      <trkpt lat="45.48071" lon="5.35312">
        <ele>700</ele>
        <time>2011-12-11T10:22:53Z</time>
      </trkpt>
      <trkpt lat="45.48073" lon="5.35324">
        <ele>698.6</ele>
        <time>2011-12-11T10:22:56Z</time>
      </trkpt>
      <trkpt lat="45.48075" lon="5.35334">
        <ele>697.5</ele>
        <time>2011-12-11T10:22:59Z</time>
      </trkpt>
      <trkpt lat="45.48074" lon="5.35344">
        <ele>696.8</ele>
        <time>2011-12-11T10:23:02Z</time>
      </trkpt>
      <trkpt lat="45.48067" lon="5.35365">
        <ele>696.7</ele>
        <time>2011-12-11T10:23:08Z</time>
      </trkpt>
      <trkpt lat="45.4807" lon="5.35386">
        <ele>697.2</ele>
        <time>2011-12-11T10:23:13Z</time>
      </trkpt>
      <trkpt lat="45.48073" lon="5.35397">
        <ele>697.1</ele>
        <time>2011-12-11T10:23:16Z</time>
      </trkpt>
      <trkpt lat="45.48075" lon="5.35406">
        <ele>696.5</ele>
        <time>2011-12-11T10:23:19Z</time>
      </trkpt>
      <trkpt lat="45.48085" lon="5.35426">
        <ele>694.8</ele>
        <time>2011-12-11T10:23:28Z</time>
      </trkpt>
      <trkpt lat="45.48094" lon="5.35444">
        <ele>691.8</ele>
        <time>2011-12-11T10:23:33Z</time>
      </trkpt>
      <trkpt lat="45.48104" lon="5.35458">
        <ele>690.4</ele>
        <time>2011-12-11T10:23:37Z</time>
      </trkpt>
      <trkpt lat="45.48109" lon="5.35468">
        <ele>690</ele>
        <time>2011-12-11T10:23:41Z</time>
      </trkpt>
      <trkpt lat="45.48111" lon="5.3548">
        <ele>689.1</ele>
        <time>2011-12-11T10:23:45Z</time>
      </trkpt>
      <trkpt lat="45.48115" lon="5.35494">
        <ele>687.7</ele>
        <time>2011-12-11T10:23:48Z</time>
      </trkpt>
      <trkpt lat="45.48115" lon="5.35517">
        <ele>684.4</ele>
        <time>2011-12-11T10:23:54Z</time>
      </trkpt>
      <trkpt lat="45.48115" lon="5.35527">
        <ele>683.5</ele>
        <time>2011-12-11T10:23:58Z</time>
      </trkpt>
      <trkpt lat="45.48114" lon="5.35552">
        <ele>681.5</ele>
        <time>2011-12-11T10:24:03Z</time>
      </trkpt>
      <trkpt lat="45.48109" lon="5.35572">
        <ele>678.3</ele>
        <time>2011-12-11T10:24:09Z</time>
      </trkpt>
      <trkpt lat="45.48107" lon="5.35582">
        <ele>676.8</ele>
        <time>2011-12-11T10:24:12Z</time>
      </trkpt>
      <trkpt lat="45.48107" lon="5.35594">
        <ele>675.8</ele>
        <time>2011-12-11T10:24:15Z</time>
      </trkpt>
      <trkpt lat="45.48108" lon="5.35616">
        <ele>674.4</ele>
        <time>2011-12-11T10:24:21Z</time>
      </trkpt>
      <trkpt lat="45.48106" lon="5.35627">
        <ele>673.6</ele>
        <time>2011-12-11T10:24:24Z</time>
      </trkpt>
      <trkpt lat="45.48104" lon="5.35637">
        <ele>676.1</ele>
        <time>2011-12-11T10:24:26Z</time>
      </trkpt>
      <trkpt lat="45.48094" lon="5.35639">
        <ele>675.7</ele>
        <time>2011-12-11T10:24:33Z</time>
      </trkpt>
      <trkpt lat="45.48079" lon="5.35631">
        <ele>674</ele>
        <time>2011-12-11T10:24:40Z</time>
      </trkpt>
      <trkpt lat="45.48079" lon="5.35631">
        <ele>603.8</ele>
        <time>2011-12-11T10:24:52Z</time>
      </trkpt>
      <trkpt lat="45.48079" lon="5.35631">
        <ele>603.8</ele>
        <time>2011-12-11T10:24:54Z</time>
      </trkpt>
      <trkpt lat="45.48069" lon="5.35661">
        <ele>669</ele>
        <time>2011-12-11T10:25:00Z</time>
      </trkpt>
      <trkpt lat="45.48067" lon="5.35671">
        <ele>667.9</ele>
        <time>2011-12-11T10:25:04Z</time>
      </trkpt>
      <trkpt lat="45.4806" lon="5.35679">
        <ele>666.1</ele>
        <time>2011-12-11T10:25:07Z</time>
      </trkpt>
      <trkpt lat="45.48054" lon="5.35684">
        <ele>665.7</ele>
        <time>2011-12-11T10:25:10Z</time>
      </trkpt>
      <trkpt lat="45.48048" lon="5.35689">
        <ele>661.7</ele>
        <time>2011-12-11T10:25:14Z</time>
      </trkpt>
      <trkpt lat="45.48044" lon="5.35698">
        <ele>659.2</ele>
        <time>2011-12-11T10:25:25Z</time>
      </trkpt>
      <trkpt lat="45.48036" lon="5.35712">
        <ele>655.8</ele>
        <time>2011-12-11T10:25:32Z</time>
      </trkpt>
      <trkpt lat="45.4803" lon="5.35721">
        <ele>651.9</ele>
        <time>2011-12-11T10:25:36Z</time>
      </trkpt>
      <trkpt lat="45.48026" lon="5.35728">
        <ele>652.4</ele>
        <time>2011-12-11T10:25:39Z</time>
      </trkpt>
      <trkpt lat="45.48025" lon="5.35744">
        <ele>655.6</ele>
        <time>2011-12-11T10:25:49Z</time>
      </trkpt>
      <trkpt lat="45.48025" lon="5.35754">
        <ele>651.9</ele>
        <time>2011-12-11T10:25:53Z</time>
      </trkpt>
      <trkpt lat="45.48021" lon="5.35774">
        <ele>642.4</ele>
        <time>2011-12-11T10:26:00Z</time>
      </trkpt>
      <trkpt lat="45.48019" lon="5.35785">
        <ele>641.5</ele>
        <time>2011-12-11T10:26:03Z</time>
      </trkpt>
      <trkpt lat="45.48016" lon="5.35793">
        <ele>640.3</ele>
        <time>2011-12-11T10:26:06Z</time>
      </trkpt>
      <trkpt lat="45.48013" lon="5.35804">
        <ele>637.6</ele>
        <time>2011-12-11T10:26:09Z</time>
      </trkpt>
      <trkpt lat="45.48006" lon="5.35824">
        <ele>635.4</ele>
        <time>2011-12-11T10:26:16Z</time>
      </trkpt>
      <trkpt lat="45.48002" lon="5.35835">
        <ele>631.9</ele>
        <time>2011-12-11T10:26:20Z</time>
      </trkpt>
      <trkpt lat="45.47994" lon="5.35853">
        <ele>631.5</ele>
        <time>2011-12-11T10:26:24Z</time>
      </trkpt>
      <trkpt lat="45.47987" lon="5.35875">
        <ele>631.5</ele>
        <time>2011-12-11T10:26:30Z</time>
      </trkpt>
      <trkpt lat="45.47985" lon="5.35886">
        <ele>634.2</ele>
        <time>2011-12-11T10:26:33Z</time>
      </trkpt>
      <trkpt lat="45.47983" lon="5.35896">
        <ele>634.8</ele>
        <time>2011-12-11T10:26:37Z</time>
      </trkpt>
      <trkpt lat="45.4798" lon="5.35906">
        <ele>634.9</ele>
        <time>2011-12-11T10:26:41Z</time>
      </trkpt>
      <trkpt lat="45.47975" lon="5.35924">
        <ele>634.3</ele>
        <time>2011-12-11T10:26:51Z</time>
      </trkpt>
      <trkpt lat="45.47968" lon="5.35944">
        <ele>634.5</ele>
        <time>2011-12-11T10:26:56Z</time>
      </trkpt>
      <trkpt lat="45.47964" lon="5.35954">
        <ele>632.1</ele>
        <time>2011-12-11T10:26:59Z</time>
      </trkpt>
      <trkpt lat="45.47961" lon="5.35965">
        <ele>630.5</ele>
        <time>2011-12-11T10:27:02Z</time>
      </trkpt>
      <trkpt lat="45.47959" lon="5.35983">
        <ele>630.5</ele>
        <time>2011-12-11T10:27:08Z</time>
      </trkpt>
      <trkpt lat="45.47956" lon="5.35991">
        <ele>631</ele>
        <time>2011-12-11T10:27:11Z</time>
      </trkpt>
      <trkpt lat="45.47956" lon="5.36001">
        <ele>628.7</ele>
        <time>2011-12-11T10:27:15Z</time>
      </trkpt>
      <trkpt lat="45.4796" lon="5.3602">
        <ele>633.9</ele>
        <time>2011-12-11T10:27:23Z</time>
      </trkpt>
      <trkpt lat="45.47958" lon="5.36029">
        <ele>632.3</ele>
        <time>2011-12-11T10:27:28Z</time>
      </trkpt>
      <trkpt lat="45.47957" lon="5.36039">
        <ele>635.7</ele>
        <time>2011-12-11T10:27:34Z</time>
      </trkpt>
      <trkpt lat="45.47956" lon="5.3605">
        <ele>639.1</ele>
        <time>2011-12-11T10:27:41Z</time>
      </trkpt>
      <trkpt lat="45.47953" lon="5.36058">
        <ele>640.1</ele>
        <time>2011-12-11T10:27:47Z</time>
      </trkpt>
      <trkpt lat="45.4795" lon="5.36066">
        <ele>640.7</ele>
        <time>2011-12-11T10:27:55Z</time>
      </trkpt>
      <trkpt lat="45.4795" lon="5.36066">
        <ele>591.5</ele>
        <time>2011-12-11T10:28:07Z</time>
      </trkpt>
      <trkpt lat="45.4795" lon="5.36066">
        <ele>591.5</ele>
        <time>2011-12-11T10:28:09Z</time>
      </trkpt>
      <trkpt lat="45.47936" lon="5.36091">
        <ele>647.1</ele>
        <time>2011-12-11T10:28:16Z</time>
      </trkpt>
      <trkpt lat="45.47936" lon="5.36091">
        <ele>595.5</ele>
        <time>2011-12-11T10:28:28Z</time>
      </trkpt>
      <trkpt lat="45.47936" lon="5.36091">
        <ele>595.5</ele>
        <time>2011-12-11T10:28:32Z</time>
      </trkpt>
      <trkpt lat="45.47917" lon="5.36108">
        <ele>650.4</ele>
        <time>2011-12-11T10:28:35Z</time>
      </trkpt>
      <trkpt lat="45.47912" lon="5.36114">
        <ele>650.9</ele>
        <time>2011-12-11T10:28:42Z</time>
      </trkpt>
      <trkpt lat="45.47909" lon="5.36128">
        <ele>652.6</ele>
        <time>2011-12-11T10:28:50Z</time>
      </trkpt>
      <trkpt lat="45.47906" lon="5.36138">
        <ele>653.8</ele>
        <time>2011-12-11T10:28:55Z</time>
      </trkpt>
      <trkpt lat="45.47904" lon="5.36146">
        <ele>654</ele>
        <time>2011-12-11T10:29:01Z</time>
      </trkpt>
      <trkpt lat="45.47898" lon="5.36149">
        <ele>655.2</ele>
        <time>2011-12-11T10:29:09Z</time>
      </trkpt>
      <trkpt lat="45.4789" lon="5.36149">
        <ele>653.6</ele>
        <time>2011-12-11T10:29:14Z</time>
      </trkpt>
      <trkpt lat="45.47883" lon="5.36149">
        <ele>652.3</ele>
        <time>2011-12-11T10:29:18Z</time>
      </trkpt>
      <trkpt lat="45.47877" lon="5.3615">
        <ele>652.3</ele>
        <time>2011-12-11T10:29:21Z</time>
      </trkpt>
      <trkpt lat="45.47857" lon="5.3615">
        <ele>651.4</ele>
        <time>2011-12-11T10:29:32Z</time>
      </trkpt>
      <trkpt lat="45.4785" lon="5.36152">
        <ele>650.3</ele>
        <time>2011-12-11T10:29:35Z</time>
      </trkpt>
      <trkpt lat="45.47843" lon="5.36153">
        <ele>651.3</ele>
        <time>2011-12-11T10:29:38Z</time>
      </trkpt>
      <trkpt lat="45.4783" lon="5.36154">
        <ele>651.6</ele>
        <time>2011-12-11T10:29:44Z</time>
      </trkpt>
      <trkpt lat="45.47815" lon="5.36154">
        <ele>650.9</ele>
        <time>2011-12-11T10:29:51Z</time>
      </trkpt>
      <trkpt lat="45.47808" lon="5.36153">
        <ele>651.3</ele>
        <time>2011-12-11T10:29:56Z</time>
      </trkpt>
      <trkpt lat="45.47802" lon="5.36155">
        <ele>651.6</ele>
        <time>2011-12-11T10:29:58Z</time>
      </trkpt>
      <trkpt lat="45.47786" lon="5.36158">
        <ele>652.1</ele>
        <time>2011-12-11T10:30:04Z</time>
      </trkpt>
      <trkpt lat="45.47779" lon="5.36156">
        <ele>651.6</ele>
        <time>2011-12-11T10:30:07Z</time>
      </trkpt>
      <trkpt lat="45.47765" lon="5.3615">
        <ele>649.6</ele>
        <time>2011-12-11T10:30:12Z</time>
      </trkpt>
      <trkpt lat="45.47758" lon="5.36147">
        <ele>650.6</ele>
        <time>2011-12-11T10:30:15Z</time>
      </trkpt>
      <trkpt lat="45.4775" lon="5.36146">
        <ele>650.4</ele>
        <time>2011-12-11T10:30:18Z</time>
      </trkpt>
      <trkpt lat="45.47744" lon="5.36142">
        <ele>648.9</ele>
        <time>2011-12-11T10:30:21Z</time>
      </trkpt>
      <trkpt lat="45.47729" lon="5.36138">
        <ele>645.2</ele>
        <time>2011-12-11T10:30:27Z</time>
      </trkpt>
      <trkpt lat="45.47722" lon="5.36137">
        <ele>644.4</ele>
        <time>2011-12-11T10:30:30Z</time>
      </trkpt>
      <trkpt lat="45.47706" lon="5.3613">
        <ele>640.7</ele>
        <time>2011-12-11T10:30:36Z</time>
      </trkpt>
      <trkpt lat="45.47701" lon="5.36126">
        <ele>640.1</ele>
        <time>2011-12-11T10:30:39Z</time>
      </trkpt>
      <trkpt lat="45.47682" lon="5.36107">
        <ele>639.2</ele>
        <time>2011-12-11T10:30:48Z</time>
      </trkpt>
      <trkpt lat="45.47678" lon="5.36099">
        <ele>639.1</ele>
        <time>2011-12-11T10:30:51Z</time>
      </trkpt>
      <trkpt lat="45.47671" lon="5.36095">
        <ele>638.4</ele>
        <time>2011-12-11T10:30:54Z</time>
      </trkpt>
      <trkpt lat="45.47664" lon="5.36087">
        <ele>639.9</ele>
        <time>2011-12-11T10:30:57Z</time>
      </trkpt>
      <trkpt lat="45.47656" lon="5.36083">
        <ele>635.8</ele>
        <time>2011-12-11T10:31:01Z</time>
      </trkpt>
      <trkpt lat="45.47648" lon="5.361">
        <ele>635.4</ele>
        <time>2011-12-11T10:31:07Z</time>
      </trkpt>
      <trkpt lat="45.47645" lon="5.36109">
        <ele>634.1</ele>
        <time>2011-12-11T10:31:10Z</time>
      </trkpt>
      <trkpt lat="45.47635" lon="5.36128">
        <ele>630.5</ele>
        <time>2011-12-11T10:31:16Z</time>
      </trkpt>
      <trkpt lat="45.47631" lon="5.36139">
        <ele>627.7</ele>
        <time>2011-12-11T10:31:19Z</time>
      </trkpt>
      <trkpt lat="45.47626" lon="5.36149">
        <ele>623.7</ele>
        <time>2011-12-11T10:31:22Z</time>
      </trkpt>
      <trkpt lat="45.47618" lon="5.36168">
        <ele>621.2</ele>
        <time>2011-12-11T10:31:28Z</time>
      </trkpt>
      <trkpt lat="45.47615" lon="5.36179">
        <ele>621.2</ele>
        <time>2011-12-11T10:31:31Z</time>
      </trkpt>
      <trkpt lat="45.47612" lon="5.36187">
        <ele>623.8</ele>
        <time>2011-12-11T10:31:34Z</time>
      </trkpt>
      <trkpt lat="45.47609" lon="5.36197">
        <ele>624.8</ele>
        <time>2011-12-11T10:31:37Z</time>
      </trkpt>
      <trkpt lat="45.47601" lon="5.36216">
        <ele>623.2</ele>
        <time>2011-12-11T10:31:43Z</time>
      </trkpt>
      <trkpt lat="45.47593" lon="5.36235">
        <ele>621.8</ele>
        <time>2011-12-11T10:31:50Z</time>
      </trkpt>
      <trkpt lat="45.47582" lon="5.36252">
        <ele>619.7</ele>
        <time>2011-12-11T10:31:55Z</time>
      </trkpt>
      <trkpt lat="45.47577" lon="5.3626">
        <ele>617.4</ele>
        <time>2011-12-11T10:31:58Z</time>
      </trkpt>
      <trkpt lat="45.47567" lon="5.36274">
        <ele>618.2</ele>
        <time>2011-12-11T10:32:03Z</time>
      </trkpt>
      <trkpt lat="45.47557" lon="5.36289">
        <ele>618.6</ele>
        <time>2011-12-11T10:32:08Z</time>
      </trkpt>
      <trkpt lat="45.47551" lon="5.36298">
        <ele>619</ele>
        <time>2011-12-11T10:32:11Z</time>
      </trkpt>
      <trkpt lat="45.47539" lon="5.3633">
        <ele>623.5</ele>
        <time>2011-12-11T10:32:20Z</time>
      </trkpt>
      <trkpt lat="45.47533" lon="5.36336">
        <ele>621.3</ele>
        <time>2011-12-11T10:32:23Z</time>
      </trkpt>
      <trkpt lat="45.47526" lon="5.3634">
        <ele>617.5</ele>
        <time>2011-12-11T10:32:26Z</time>
      </trkpt>
      <trkpt lat="45.47511" lon="5.36345">
        <ele>617.1</ele>
        <time>2011-12-11T10:32:32Z</time>
      </trkpt>
      <trkpt lat="45.47504" lon="5.36347">
        <ele>619.1</ele>
        <time>2011-12-11T10:32:35Z</time>
      </trkpt>
      <trkpt lat="45.47496" lon="5.3635">
        <ele>624.6</ele>
        <time>2011-12-11T10:32:38Z</time>
      </trkpt>
      <trkpt lat="45.47482" lon="5.36358">
        <ele>626.6</ele>
        <time>2011-12-11T10:32:44Z</time>
      </trkpt>
      <trkpt lat="45.47476" lon="5.36357">
        <ele>626.3</ele>
        <time>2011-12-11T10:32:46Z</time>
      </trkpt>
      <trkpt lat="45.47461" lon="5.36348">
        <ele>625.5</ele>
        <time>2011-12-11T10:32:51Z</time>
      </trkpt>
      <trkpt lat="45.47453" lon="5.36342">
        <ele>625.5</ele>
        <time>2011-12-11T10:32:54Z</time>
      </trkpt>
      <trkpt lat="45.47445" lon="5.36339">
        <ele>625.3</ele>
        <time>2011-12-11T10:32:58Z</time>
      </trkpt>
      <trkpt lat="45.47429" lon="5.36333">
        <ele>624.9</ele>
        <time>2011-12-11T10:33:04Z</time>
      </trkpt>
      <trkpt lat="45.47422" lon="5.36332">
        <ele>626.5</ele>
        <time>2011-12-11T10:33:07Z</time>
      </trkpt>
      <trkpt lat="45.47415" lon="5.36329">
        <ele>625.7</ele>
        <time>2011-12-11T10:33:10Z</time>
      </trkpt>
      <trkpt lat="45.47409" lon="5.36325">
        <ele>624</ele>
        <time>2011-12-11T10:33:13Z</time>
      </trkpt>
      <trkpt lat="45.47394" lon="5.36316">
        <ele>621.7</ele>
        <time>2011-12-11T10:33:20Z</time>
      </trkpt>
      <trkpt lat="45.47388" lon="5.36311">
        <ele>620.9</ele>
        <time>2011-12-11T10:33:24Z</time>
      </trkpt>
      <trkpt lat="45.47381" lon="5.36307">
        <ele>620</ele>
        <time>2011-12-11T10:33:28Z</time>
      </trkpt>
      <trkpt lat="45.47375" lon="5.36304">
        <ele>619.6</ele>
        <time>2011-12-11T10:33:34Z</time>
      </trkpt>
      <trkpt lat="45.47375" lon="5.36304">
        <ele>562.8</ele>
        <time>2011-12-11T10:33:46Z</time>
      </trkpt>
      <trkpt lat="45.47375" lon="5.36304">
        <ele>562.8</ele>
        <time>2011-12-11T10:33:47Z</time>
      </trkpt>
    </trkseg>
  </trk>
</gpx>